<?xml version="1.0" encoding="UTF-8" standalone="no" ?>
<gpx xmlns="http://www.topografix.com/GPX/1/1" xmlns:xsi="http://www.w3.org/2001/XMLSchema-instance" xsi:schemaLocation="http://www.topografix.com/GPX/1/1 http://www.topografix.com/GPX/1/1/gpx.xsd" version="1.1" creator="VisuGPX - https://www.visugpx.com">
  <metadata>
    <name>Flauzins-Cheval du Roi-Chapelle de Murat</name>
    <desc><![CDATA[DÃ©part lieu-dit "Le Coulet" au niveau de la croix]]></desc>
  </metadata>
  <trk>
    <name><![CDATA[FLAUZINS]]></name>
    <trkseg>
      <trkpt lat="44.1964" lon="2.15444">
        <ele>298.63</ele>
        <time>2021-08-08T12:15:16Z</time>
      </trkpt>
      <trkpt lat="44.1964" lon="2.15444">
        <ele>252</ele>
        <time>2021-08-08T12:15:17Z</time>
      </trkpt>
      <trkpt lat="44.19637" lon="2.15437">
        <ele>252.48</ele>
        <time>2021-08-08T12:15:40Z</time>
      </trkpt>
      <trkpt lat="44.19637" lon="2.15434">
        <ele>252.96</ele>
        <time>2021-08-08T12:15:50Z</time>
      </trkpt>
      <trkpt lat="44.19634" lon="2.1544">
        <ele>251.04</ele>
        <time>2021-08-08T12:16:07Z</time>
      </trkpt>
      <trkpt lat="44.19635" lon="2.1544">
        <ele>252.48</ele>
        <time>2021-08-08T12:16:25Z</time>
      </trkpt>
      <trkpt lat="44.19646" lon="2.1545">
        <ele>252.96</ele>
        <time>2021-08-08T12:16:47Z</time>
      </trkpt>
      <trkpt lat="44.19663" lon="2.1546">
        <ele>253.44</ele>
        <time>2021-08-08T12:17:03Z</time>
      </trkpt>
      <trkpt lat="44.19679" lon="2.15471">
        <ele>254.89</ele>
        <time>2021-08-08T12:17:20Z</time>
      </trkpt>
      <trkpt lat="44.19695" lon="2.15482">
        <ele>255.85</ele>
        <time>2021-08-08T12:17:37Z</time>
      </trkpt>
      <trkpt lat="44.19712" lon="2.15489">
        <ele>256.81</ele>
        <time>2021-08-08T12:17:53Z</time>
      </trkpt>
      <trkpt lat="44.19729" lon="2.15493">
        <ele>258.25</ele>
        <time>2021-08-08T12:18:09Z</time>
      </trkpt>
      <trkpt lat="44.19751" lon="2.15502">
        <ele>259.21</ele>
        <time>2021-08-08T12:18:28Z</time>
      </trkpt>
      <trkpt lat="44.19756" lon="2.15504">
        <ele>259.21</ele>
        <time>2021-08-08T12:18:43Z</time>
      </trkpt>
      <trkpt lat="44.19763" lon="2.15508">
        <ele>259.21</ele>
        <time>2021-08-08T12:18:59Z</time>
      </trkpt>
      <trkpt lat="44.19758" lon="2.15507">
        <ele>259.21</ele>
        <time>2021-08-08T12:19:18Z</time>
      </trkpt>
      <trkpt lat="44.19761" lon="2.15503">
        <ele>259.69</ele>
        <time>2021-08-08T12:19:39Z</time>
      </trkpt>
      <trkpt lat="44.19774" lon="2.15504">
        <ele>262.1</ele>
        <time>2021-08-08T12:19:57Z</time>
      </trkpt>
      <trkpt lat="44.19784" lon="2.15498">
        <ele>263.06</ele>
        <time>2021-08-08T12:20:10Z</time>
      </trkpt>
      <trkpt lat="44.19799" lon="2.15494">
        <ele>264.5</ele>
        <time>2021-08-08T12:20:25Z</time>
      </trkpt>
      <trkpt lat="44.19811" lon="2.15487">
        <ele>266.9</ele>
        <time>2021-08-08T12:20:40Z</time>
      </trkpt>
      <trkpt lat="44.19824" lon="2.15481">
        <ele>269.31</ele>
        <time>2021-08-08T12:20:56Z</time>
      </trkpt>
      <trkpt lat="44.19835" lon="2.15473">
        <ele>272.19</ele>
        <time>2021-08-08T12:21:14Z</time>
      </trkpt>
      <trkpt lat="44.19844" lon="2.1547">
        <ele>274.11</ele>
        <time>2021-08-08T12:21:28Z</time>
      </trkpt>
      <trkpt lat="44.19854" lon="2.15457">
        <ele>276.52</ele>
        <time>2021-08-08T12:21:42Z</time>
      </trkpt>
      <trkpt lat="44.19862" lon="2.15442">
        <ele>278.44</ele>
        <time>2021-08-08T12:21:58Z</time>
      </trkpt>
      <trkpt lat="44.19866" lon="2.15432">
        <ele>279.88</ele>
        <time>2021-08-08T12:22:12Z</time>
      </trkpt>
      <trkpt lat="44.19867" lon="2.1544">
        <ele>281.32</ele>
        <time>2021-08-08T12:22:29Z</time>
      </trkpt>
      <trkpt lat="44.19866" lon="2.15457">
        <ele>282.77</ele>
        <time>2021-08-08T12:22:46Z</time>
      </trkpt>
      <trkpt lat="44.19863" lon="2.15476">
        <ele>284.69</ele>
        <time>2021-08-08T12:23:02Z</time>
      </trkpt>
      <trkpt lat="44.19868" lon="2.15494">
        <ele>286.61</ele>
        <time>2021-08-08T12:23:18Z</time>
      </trkpt>
      <trkpt lat="44.19877" lon="2.15498">
        <ele>289.01</ele>
        <time>2021-08-08T12:23:32Z</time>
      </trkpt>
      <trkpt lat="44.19882" lon="2.15485">
        <ele>290.94</ele>
        <time>2021-08-08T12:23:48Z</time>
      </trkpt>
      <trkpt lat="44.19886" lon="2.15477">
        <ele>292.86</ele>
        <time>2021-08-08T12:24:03Z</time>
      </trkpt>
      <trkpt lat="44.19891" lon="2.15461">
        <ele>294.78</ele>
        <time>2021-08-08T12:24:19Z</time>
      </trkpt>
      <trkpt lat="44.19896" lon="2.15444">
        <ele>296.7</ele>
        <time>2021-08-08T12:24:36Z</time>
      </trkpt>
      <trkpt lat="44.199" lon="2.15439">
        <ele>298.15</ele>
        <time>2021-08-08T12:24:49Z</time>
      </trkpt>
      <trkpt lat="44.19901" lon="2.15453">
        <ele>300.07</ele>
        <time>2021-08-08T12:25:04Z</time>
      </trkpt>
      <trkpt lat="44.19906" lon="2.15466">
        <ele>301.99</ele>
        <time>2021-08-08T12:25:18Z</time>
      </trkpt>
      <trkpt lat="44.19912" lon="2.1548">
        <ele>303.43</ele>
        <time>2021-08-08T12:25:32Z</time>
      </trkpt>
      <trkpt lat="44.19916" lon="2.15476">
        <ele>305.36</ele>
        <time>2021-08-08T12:25:46Z</time>
      </trkpt>
      <trkpt lat="44.19917" lon="2.15458">
        <ele>307.28</ele>
        <time>2021-08-08T12:26:02Z</time>
      </trkpt>
      <trkpt lat="44.1992" lon="2.1544">
        <ele>309.2</ele>
        <time>2021-08-08T12:26:20Z</time>
      </trkpt>
      <trkpt lat="44.19919" lon="2.15428">
        <ele>310.64</ele>
        <time>2021-08-08T12:26:32Z</time>
      </trkpt>
      <trkpt lat="44.19923" lon="2.15411">
        <ele>311.6</ele>
        <time>2021-08-08T12:26:48Z</time>
      </trkpt>
      <trkpt lat="44.19927" lon="2.15399">
        <ele>313.05</ele>
        <time>2021-08-08T12:27:01Z</time>
      </trkpt>
      <trkpt lat="44.19933" lon="2.15381">
        <ele>314.49</ele>
        <time>2021-08-08T12:27:17Z</time>
      </trkpt>
      <trkpt lat="44.1994" lon="2.1537">
        <ele>315.93</ele>
        <time>2021-08-08T12:27:31Z</time>
      </trkpt>
      <trkpt lat="44.19934" lon="2.15383">
        <ele>317.37</ele>
        <time>2021-08-08T12:27:48Z</time>
      </trkpt>
      <trkpt lat="44.19933" lon="2.15399">
        <ele>318.33</ele>
        <time>2021-08-08T12:28:02Z</time>
      </trkpt>
      <trkpt lat="44.19935" lon="2.15411">
        <ele>319.3</ele>
        <time>2021-08-08T12:28:16Z</time>
      </trkpt>
      <trkpt lat="44.19939" lon="2.15419">
        <ele>320.26</ele>
        <time>2021-08-08T12:28:31Z</time>
      </trkpt>
      <trkpt lat="44.1994" lon="2.15419">
        <ele>319.78</ele>
        <time>2021-08-08T12:28:53Z</time>
      </trkpt>
      <trkpt lat="44.19947" lon="2.15421">
        <ele>322.66</ele>
        <time>2021-08-08T12:29:07Z</time>
      </trkpt>
      <trkpt lat="44.19958" lon="2.15419">
        <ele>324.1</ele>
        <time>2021-08-08T12:29:20Z</time>
      </trkpt>
      <trkpt lat="44.19966" lon="2.15418">
        <ele>326.5</ele>
        <time>2021-08-08T12:29:34Z</time>
      </trkpt>
      <trkpt lat="44.19968" lon="2.1541">
        <ele>327.95</ele>
        <time>2021-08-08T12:29:48Z</time>
      </trkpt>
      <trkpt lat="44.19958" lon="2.15404">
        <ele>329.39</ele>
        <time>2021-08-08T12:30:03Z</time>
      </trkpt>
      <trkpt lat="44.1996" lon="2.15388">
        <ele>331.79</ele>
        <time>2021-08-08T12:30:19Z</time>
      </trkpt>
      <trkpt lat="44.1997" lon="2.15389">
        <ele>334.2</ele>
        <time>2021-08-08T12:30:33Z</time>
      </trkpt>
      <trkpt lat="44.19978" lon="2.15391">
        <ele>336.12</ele>
        <time>2021-08-08T12:30:48Z</time>
      </trkpt>
      <trkpt lat="44.19985" lon="2.15391">
        <ele>337.56</ele>
        <time>2021-08-08T12:31:02Z</time>
      </trkpt>
      <trkpt lat="44.19993" lon="2.15391">
        <ele>339</ele>
        <time>2021-08-08T12:31:14Z</time>
      </trkpt>
      <trkpt lat="44.20002" lon="2.15389">
        <ele>339.96</ele>
        <time>2021-08-08T12:31:29Z</time>
      </trkpt>
      <trkpt lat="44.19997" lon="2.15384">
        <ele>341.41</ele>
        <time>2021-08-08T12:31:41Z</time>
      </trkpt>
      <trkpt lat="44.19986" lon="2.15377">
        <ele>342.85</ele>
        <time>2021-08-08T12:31:57Z</time>
      </trkpt>
      <trkpt lat="44.19982" lon="2.1536">
        <ele>343.81</ele>
        <time>2021-08-08T12:32:13Z</time>
      </trkpt>
      <trkpt lat="44.19989" lon="2.15342">
        <ele>345.25</ele>
        <time>2021-08-08T12:32:29Z</time>
      </trkpt>
      <trkpt lat="44.19998" lon="2.15333">
        <ele>346.69</ele>
        <time>2021-08-08T12:32:44Z</time>
      </trkpt>
      <trkpt lat="44.20009" lon="2.15334">
        <ele>349.58</ele>
        <time>2021-08-08T12:33:01Z</time>
      </trkpt>
      <trkpt lat="44.20018" lon="2.15338">
        <ele>351.5</ele>
        <time>2021-08-08T12:33:17Z</time>
      </trkpt>
      <trkpt lat="44.20029" lon="2.15341">
        <ele>352.94</ele>
        <time>2021-08-08T12:33:32Z</time>
      </trkpt>
      <trkpt lat="44.20038" lon="2.15343">
        <ele>354.86</ele>
        <time>2021-08-08T12:33:48Z</time>
      </trkpt>
      <trkpt lat="44.20039" lon="2.15353">
        <ele>356.79</ele>
        <time>2021-08-08T12:34:06Z</time>
      </trkpt>
      <trkpt lat="44.20039" lon="2.15357">
        <ele>358.23</ele>
        <time>2021-08-08T12:34:21Z</time>
      </trkpt>
      <trkpt lat="44.20043" lon="2.15362">
        <ele>359.19</ele>
        <time>2021-08-08T12:34:35Z</time>
      </trkpt>
      <trkpt lat="44.20049" lon="2.15362">
        <ele>359.67</ele>
        <time>2021-08-08T12:34:55Z</time>
      </trkpt>
      <trkpt lat="44.20058" lon="2.15363">
        <ele>362.55</ele>
        <time>2021-08-08T12:35:10Z</time>
      </trkpt>
      <trkpt lat="44.20068" lon="2.15366">
        <ele>364.96</ele>
        <time>2021-08-08T12:35:27Z</time>
      </trkpt>
      <trkpt lat="44.20078" lon="2.15364">
        <ele>367.36</ele>
        <time>2021-08-08T12:35:42Z</time>
      </trkpt>
      <trkpt lat="44.20086" lon="2.1536">
        <ele>369.76</ele>
        <time>2021-08-08T12:35:57Z</time>
      </trkpt>
      <trkpt lat="44.20093" lon="2.15362">
        <ele>372.65</ele>
        <time>2021-08-08T12:36:11Z</time>
      </trkpt>
      <trkpt lat="44.201" lon="2.1537">
        <ele>375.05</ele>
        <time>2021-08-08T12:36:29Z</time>
      </trkpt>
      <trkpt lat="44.2011" lon="2.15375">
        <ele>376.97</ele>
        <time>2021-08-08T12:36:46Z</time>
      </trkpt>
      <trkpt lat="44.20122" lon="2.15379">
        <ele>379.86</ele>
        <time>2021-08-08T12:37:05Z</time>
      </trkpt>
      <trkpt lat="44.2013" lon="2.15377">
        <ele>381.78</ele>
        <time>2021-08-08T12:37:20Z</time>
      </trkpt>
      <trkpt lat="44.20143" lon="2.15381">
        <ele>383.7</ele>
        <time>2021-08-08T12:37:39Z</time>
      </trkpt>
      <trkpt lat="44.20152" lon="2.15389">
        <ele>385.15</ele>
        <time>2021-08-08T12:37:53Z</time>
      </trkpt>
      <trkpt lat="44.20161" lon="2.15395">
        <ele>387.07</ele>
        <time>2021-08-08T12:38:08Z</time>
      </trkpt>
      <trkpt lat="44.20178" lon="2.15402">
        <ele>389.47</ele>
        <time>2021-08-08T12:38:23Z</time>
      </trkpt>
      <trkpt lat="44.2018" lon="2.15414">
        <ele>390.91</ele>
        <time>2021-08-08T12:38:38Z</time>
      </trkpt>
      <trkpt lat="44.20181" lon="2.15415">
        <ele>390.91</ele>
        <time>2021-08-08T12:38:57Z</time>
      </trkpt>
      <trkpt lat="44.20181" lon="2.15419">
        <ele>391.39</ele>
        <time>2021-08-08T12:39:16Z</time>
      </trkpt>
      <trkpt lat="44.20182" lon="2.15426">
        <ele>391.87</ele>
        <time>2021-08-08T12:39:29Z</time>
      </trkpt>
      <trkpt lat="44.20189" lon="2.1544">
        <ele>394.76</ele>
        <time>2021-08-08T12:39:47Z</time>
      </trkpt>
      <trkpt lat="44.20195" lon="2.15451">
        <ele>398.12</ele>
        <time>2021-08-08T12:40:00Z</time>
      </trkpt>
      <trkpt lat="44.20203" lon="2.15474">
        <ele>401.01</ele>
        <time>2021-08-08T12:40:17Z</time>
      </trkpt>
      <trkpt lat="44.20212" lon="2.15486">
        <ele>403.41</ele>
        <time>2021-08-08T12:40:33Z</time>
      </trkpt>
      <trkpt lat="44.20224" lon="2.15491">
        <ele>405.33</ele>
        <time>2021-08-08T12:40:51Z</time>
      </trkpt>
      <trkpt lat="44.20239" lon="2.15494">
        <ele>406.77</ele>
        <time>2021-08-08T12:41:06Z</time>
      </trkpt>
      <trkpt lat="44.20251" lon="2.15497">
        <ele>408.22</ele>
        <time>2021-08-08T12:41:21Z</time>
      </trkpt>
      <trkpt lat="44.20269" lon="2.15502">
        <ele>408.7</ele>
        <time>2021-08-08T12:41:38Z</time>
      </trkpt>
      <trkpt lat="44.20285" lon="2.15504">
        <ele>409.66</ele>
        <time>2021-08-08T12:41:57Z</time>
      </trkpt>
      <trkpt lat="44.203" lon="2.15507">
        <ele>410.62</ele>
        <time>2021-08-08T12:42:10Z</time>
      </trkpt>
      <trkpt lat="44.20316" lon="2.15511">
        <ele>410.62</ele>
        <time>2021-08-08T12:42:23Z</time>
      </trkpt>
      <trkpt lat="44.20327" lon="2.15509">
        <ele>410.62</ele>
        <time>2021-08-08T12:42:35Z</time>
      </trkpt>
      <trkpt lat="44.2035" lon="2.15507">
        <ele>411.1</ele>
        <time>2021-08-08T12:42:52Z</time>
      </trkpt>
      <trkpt lat="44.20364" lon="2.15507">
        <ele>411.1</ele>
        <time>2021-08-08T12:43:06Z</time>
      </trkpt>
      <trkpt lat="44.20371" lon="2.15511">
        <ele>411.1</ele>
        <time>2021-08-08T12:43:24Z</time>
      </trkpt>
      <trkpt lat="44.20374" lon="2.15509">
        <ele>411.1</ele>
        <time>2021-08-08T12:43:47Z</time>
      </trkpt>
      <trkpt lat="44.20383" lon="2.15521">
        <ele>411.58</ele>
        <time>2021-08-08T12:44:03Z</time>
      </trkpt>
      <trkpt lat="44.20395" lon="2.15539">
        <ele>412.54</ele>
        <time>2021-08-08T12:44:19Z</time>
      </trkpt>
      <trkpt lat="44.20407" lon="2.15552">
        <ele>413.02</ele>
        <time>2021-08-08T12:44:35Z</time>
      </trkpt>
      <trkpt lat="44.2042" lon="2.15558">
        <ele>414.47</ele>
        <time>2021-08-08T12:44:51Z</time>
      </trkpt>
      <trkpt lat="44.20435" lon="2.15564">
        <ele>415.91</ele>
        <time>2021-08-08T12:45:06Z</time>
      </trkpt>
      <trkpt lat="44.20453" lon="2.1557">
        <ele>416.39</ele>
        <time>2021-08-08T12:45:23Z</time>
      </trkpt>
      <trkpt lat="44.20471" lon="2.15574">
        <ele>416.87</ele>
        <time>2021-08-08T12:45:40Z</time>
      </trkpt>
      <trkpt lat="44.20481" lon="2.15574">
        <ele>417.83</ele>
        <time>2021-08-08T12:45:53Z</time>
      </trkpt>
      <trkpt lat="44.20501" lon="2.15574">
        <ele>419.27</ele>
        <time>2021-08-08T12:46:11Z</time>
      </trkpt>
      <trkpt lat="44.20516" lon="2.15577">
        <ele>420.71</ele>
        <time>2021-08-08T12:46:26Z</time>
      </trkpt>
      <trkpt lat="44.20529" lon="2.15584">
        <ele>421.19</ele>
        <time>2021-08-08T12:46:40Z</time>
      </trkpt>
      <trkpt lat="44.20538" lon="2.15588">
        <ele>422.16</ele>
        <time>2021-08-08T12:47:00Z</time>
      </trkpt>
      <trkpt lat="44.20548" lon="2.15587">
        <ele>423.12</ele>
        <time>2021-08-08T12:47:19Z</time>
      </trkpt>
      <trkpt lat="44.20563" lon="2.15591">
        <ele>424.08</ele>
        <time>2021-08-08T12:47:36Z</time>
      </trkpt>
      <trkpt lat="44.20578" lon="2.15596">
        <ele>425.52</ele>
        <time>2021-08-08T12:47:50Z</time>
      </trkpt>
      <trkpt lat="44.20591" lon="2.156">
        <ele>426.96</ele>
        <time>2021-08-08T12:48:05Z</time>
      </trkpt>
      <trkpt lat="44.20607" lon="2.15604">
        <ele>428.89</ele>
        <time>2021-08-08T12:48:20Z</time>
      </trkpt>
      <trkpt lat="44.20624" lon="2.15605">
        <ele>430.33</ele>
        <time>2021-08-08T12:48:36Z</time>
      </trkpt>
      <trkpt lat="44.20633" lon="2.15609">
        <ele>433.21</ele>
        <time>2021-08-08T12:48:44Z</time>
      </trkpt>
      <trkpt lat="44.2065" lon="2.15609">
        <ele>433.69</ele>
        <time>2021-08-08T12:49:02Z</time>
      </trkpt>
      <trkpt lat="44.20659" lon="2.1561">
        <ele>435.13</ele>
        <time>2021-08-08T12:49:13Z</time>
      </trkpt>
      <trkpt lat="44.20668" lon="2.15609">
        <ele>436.1</ele>
        <time>2021-08-08T12:49:25Z</time>
      </trkpt>
      <trkpt lat="44.20677" lon="2.15613">
        <ele>438.02</ele>
        <time>2021-08-08T12:49:39Z</time>
      </trkpt>
      <trkpt lat="44.20683" lon="2.15604">
        <ele>439.46</ele>
        <time>2021-08-08T12:49:52Z</time>
      </trkpt>
      <trkpt lat="44.20677" lon="2.15592">
        <ele>441.86</ele>
        <time>2021-08-08T12:50:05Z</time>
      </trkpt>
      <trkpt lat="44.20671" lon="2.15577">
        <ele>443.79</ele>
        <time>2021-08-08T12:50:20Z</time>
      </trkpt>
      <trkpt lat="44.20662" lon="2.15561">
        <ele>444.75</ele>
        <time>2021-08-08T12:50:34Z</time>
      </trkpt>
      <trkpt lat="44.2066" lon="2.15556">
        <ele>445.71</ele>
        <time>2021-08-08T12:50:39Z</time>
      </trkpt>
      <trkpt lat="44.20649" lon="2.1554">
        <ele>447.15</ele>
        <time>2021-08-08T12:50:55Z</time>
      </trkpt>
      <trkpt lat="44.2064" lon="2.15529">
        <ele>448.59</ele>
        <time>2021-08-08T12:51:09Z</time>
      </trkpt>
      <trkpt lat="44.2063" lon="2.15522">
        <ele>450.03</ele>
        <time>2021-08-08T12:51:22Z</time>
      </trkpt>
      <trkpt lat="44.20619" lon="2.15514">
        <ele>451.96</ele>
        <time>2021-08-08T12:51:36Z</time>
      </trkpt>
      <trkpt lat="44.20612" lon="2.15509">
        <ele>452.92</ele>
        <time>2021-08-08T12:51:53Z</time>
      </trkpt>
      <trkpt lat="44.20602" lon="2.15498">
        <ele>455.32</ele>
        <time>2021-08-08T12:52:08Z</time>
      </trkpt>
      <trkpt lat="44.20592" lon="2.15496">
        <ele>457.24</ele>
        <time>2021-08-08T12:52:24Z</time>
      </trkpt>
      <trkpt lat="44.20583" lon="2.15498">
        <ele>459.65</ele>
        <time>2021-08-08T12:52:41Z</time>
      </trkpt>
      <trkpt lat="44.20571" lon="2.15493">
        <ele>460.61</ele>
        <time>2021-08-08T12:52:54Z</time>
      </trkpt>
      <trkpt lat="44.20555" lon="2.15488">
        <ele>462.53</ele>
        <time>2021-08-08T12:53:08Z</time>
      </trkpt>
      <trkpt lat="44.20547" lon="2.15482">
        <ele>463.01</ele>
        <time>2021-08-08T12:53:23Z</time>
      </trkpt>
      <trkpt lat="44.20546" lon="2.15467">
        <ele>464.93</ele>
        <time>2021-08-08T12:53:37Z</time>
      </trkpt>
      <trkpt lat="44.2055" lon="2.15454">
        <ele>466.86</ele>
        <time>2021-08-08T12:53:52Z</time>
      </trkpt>
      <trkpt lat="44.20559" lon="2.15446">
        <ele>468.78</ele>
        <time>2021-08-08T12:54:04Z</time>
      </trkpt>
      <trkpt lat="44.20568" lon="2.15433">
        <ele>471.18</ele>
        <time>2021-08-08T12:54:20Z</time>
      </trkpt>
      <trkpt lat="44.20576" lon="2.15427">
        <ele>472.14</ele>
        <time>2021-08-08T12:54:34Z</time>
      </trkpt>
      <trkpt lat="44.20584" lon="2.15418">
        <ele>473.59</ele>
        <time>2021-08-08T12:54:47Z</time>
      </trkpt>
      <trkpt lat="44.206" lon="2.15407">
        <ele>474.07</ele>
        <time>2021-08-08T12:55:03Z</time>
      </trkpt>
      <trkpt lat="44.20613" lon="2.15397">
        <ele>475.03</ele>
        <time>2021-08-08T12:55:18Z</time>
      </trkpt>
      <trkpt lat="44.20624" lon="2.15387">
        <ele>475.03</ele>
        <time>2021-08-08T12:55:34Z</time>
      </trkpt>
      <trkpt lat="44.20626" lon="2.15385">
        <ele>475.03</ele>
        <time>2021-08-08T12:55:47Z</time>
      </trkpt>
      <trkpt lat="44.20629" lon="2.15382">
        <ele>475.03</ele>
        <time>2021-08-08T12:56:01Z</time>
      </trkpt>
      <trkpt lat="44.20639" lon="2.15377">
        <ele>475.03</ele>
        <time>2021-08-08T12:56:16Z</time>
      </trkpt>
      <trkpt lat="44.20639" lon="2.15376">
        <ele>475.03</ele>
        <time>2021-08-08T12:56:28Z</time>
      </trkpt>
      <trkpt lat="44.20648" lon="2.15373">
        <ele>473.59</ele>
        <time>2021-08-08T12:56:42Z</time>
      </trkpt>
      <trkpt lat="44.20664" lon="2.15371">
        <ele>472.63</ele>
        <time>2021-08-08T12:56:59Z</time>
      </trkpt>
      <trkpt lat="44.20683" lon="2.15368">
        <ele>472.63</ele>
        <time>2021-08-08T12:57:16Z</time>
      </trkpt>
      <trkpt lat="44.207" lon="2.15362">
        <ele>472.63</ele>
        <time>2021-08-08T12:57:31Z</time>
      </trkpt>
      <trkpt lat="44.20715" lon="2.15356">
        <ele>472.14</ele>
        <time>2021-08-08T12:57:47Z</time>
      </trkpt>
      <trkpt lat="44.20733" lon="2.15346">
        <ele>472.63</ele>
        <time>2021-08-08T12:58:05Z</time>
      </trkpt>
      <trkpt lat="44.20747" lon="2.15338">
        <ele>470.22</ele>
        <time>2021-08-08T12:58:22Z</time>
      </trkpt>
      <trkpt lat="44.2076" lon="2.15331">
        <ele>470.22</ele>
        <time>2021-08-08T12:58:36Z</time>
      </trkpt>
      <trkpt lat="44.20774" lon="2.15324">
        <ele>469.26</ele>
        <time>2021-08-08T12:58:53Z</time>
      </trkpt>
      <trkpt lat="44.20788" lon="2.15313">
        <ele>468.78</ele>
        <time>2021-08-08T12:59:08Z</time>
      </trkpt>
      <trkpt lat="44.208" lon="2.153">
        <ele>468.3</ele>
        <time>2021-08-08T12:59:23Z</time>
      </trkpt>
      <trkpt lat="44.20806" lon="2.15287">
        <ele>466.86</ele>
        <time>2021-08-08T12:59:37Z</time>
      </trkpt>
      <trkpt lat="44.20806" lon="2.15279">
        <ele>467.34</ele>
        <time>2021-08-08T12:59:52Z</time>
      </trkpt>
      <trkpt lat="44.20794" lon="2.15271">
        <ele>470.7</ele>
        <time>2021-08-08T13:00:10Z</time>
      </trkpt>
      <trkpt lat="44.20779" lon="2.15259">
        <ele>473.11</ele>
        <time>2021-08-08T13:00:27Z</time>
      </trkpt>
      <trkpt lat="44.20766" lon="2.15245">
        <ele>474.55</ele>
        <time>2021-08-08T13:00:44Z</time>
      </trkpt>
      <trkpt lat="44.20761" lon="2.15226">
        <ele>475.99</ele>
        <time>2021-08-08T13:01:01Z</time>
      </trkpt>
      <trkpt lat="44.20762" lon="2.15211">
        <ele>476.47</ele>
        <time>2021-08-08T13:01:20Z</time>
      </trkpt>
      <trkpt lat="44.20765" lon="2.15199">
        <ele>477.91</ele>
        <time>2021-08-08T13:01:32Z</time>
      </trkpt>
      <trkpt lat="44.20769" lon="2.15186">
        <ele>479.35</ele>
        <time>2021-08-08T13:01:45Z</time>
      </trkpt>
      <trkpt lat="44.20774" lon="2.15174">
        <ele>480.32</ele>
        <time>2021-08-08T13:01:59Z</time>
      </trkpt>
      <trkpt lat="44.20778" lon="2.15166">
        <ele>481.28</ele>
        <time>2021-08-08T13:02:12Z</time>
      </trkpt>
      <trkpt lat="44.20782" lon="2.15155">
        <ele>482.24</ele>
        <time>2021-08-08T13:02:26Z</time>
      </trkpt>
      <trkpt lat="44.20782" lon="2.15156">
        <ele>482.72</ele>
        <time>2021-08-08T13:02:49Z</time>
      </trkpt>
      <trkpt lat="44.20784" lon="2.15155">
        <ele>482.72</ele>
        <time>2021-08-08T13:03:07Z</time>
      </trkpt>
      <trkpt lat="44.20789" lon="2.15142">
        <ele>483.68</ele>
        <time>2021-08-08T13:03:22Z</time>
      </trkpt>
      <trkpt lat="44.20792" lon="2.15132">
        <ele>484.64</ele>
        <time>2021-08-08T13:03:35Z</time>
      </trkpt>
      <trkpt lat="44.20799" lon="2.15116">
        <ele>485.6</ele>
        <time>2021-08-08T13:03:48Z</time>
      </trkpt>
      <trkpt lat="44.20807" lon="2.15102">
        <ele>487.05</ele>
        <time>2021-08-08T13:04:03Z</time>
      </trkpt>
      <trkpt lat="44.20809" lon="2.15106">
        <ele>487.05</ele>
        <time>2021-08-08T13:04:07Z</time>
      </trkpt>
      <trkpt lat="44.20817" lon="2.15118">
        <ele>488.49</ele>
        <time>2021-08-08T13:04:22Z</time>
      </trkpt>
      <trkpt lat="44.20831" lon="2.15132">
        <ele>488.97</ele>
        <time>2021-08-08T13:04:39Z</time>
      </trkpt>
      <trkpt lat="44.20844" lon="2.15146">
        <ele>489.93</ele>
        <time>2021-08-08T13:04:55Z</time>
      </trkpt>
      <trkpt lat="44.20857" lon="2.15163">
        <ele>490.41</ele>
        <time>2021-08-08T13:05:13Z</time>
      </trkpt>
      <trkpt lat="44.20864" lon="2.15169">
        <ele>490.41</ele>
        <time>2021-08-08T13:05:27Z</time>
      </trkpt>
      <trkpt lat="44.20865" lon="2.15169">
        <ele>490.41</ele>
        <time>2021-08-08T13:05:50Z</time>
      </trkpt>
      <trkpt lat="44.20868" lon="2.15167">
        <ele>490.41</ele>
        <time>2021-08-08T13:05:53Z</time>
      </trkpt>
      <trkpt lat="44.20873" lon="2.15161">
        <ele>490.41</ele>
        <time>2021-08-08T13:05:59Z</time>
      </trkpt>
      <trkpt lat="44.20876" lon="2.15151">
        <ele>492.81</ele>
        <time>2021-08-08T13:06:08Z</time>
      </trkpt>
      <trkpt lat="44.20883" lon="2.15133">
        <ele>494.74</ele>
        <time>2021-08-08T13:06:24Z</time>
      </trkpt>
      <trkpt lat="44.20887" lon="2.15116">
        <ele>497.14</ele>
        <time>2021-08-08T13:06:40Z</time>
      </trkpt>
      <trkpt lat="44.20891" lon="2.15101">
        <ele>498.58</ele>
        <time>2021-08-08T13:06:54Z</time>
      </trkpt>
      <trkpt lat="44.20889" lon="2.15104">
        <ele>498.58</ele>
        <time>2021-08-08T13:07:13Z</time>
      </trkpt>
      <trkpt lat="44.20891" lon="2.15101">
        <ele>499.06</ele>
        <time>2021-08-08T13:07:34Z</time>
      </trkpt>
      <trkpt lat="44.20894" lon="2.15085">
        <ele>500.98</ele>
        <time>2021-08-08T13:07:48Z</time>
      </trkpt>
      <trkpt lat="44.20897" lon="2.15074">
        <ele>502.43</ele>
        <time>2021-08-08T13:08:03Z</time>
      </trkpt>
      <trkpt lat="44.20904" lon="2.15053">
        <ele>503.87</ele>
        <time>2021-08-08T13:08:19Z</time>
      </trkpt>
      <trkpt lat="44.20912" lon="2.15033">
        <ele>505.31</ele>
        <time>2021-08-08T13:08:34Z</time>
      </trkpt>
      <trkpt lat="44.20912" lon="2.15031">
        <ele>505.31</ele>
        <time>2021-08-08T13:08:35Z</time>
      </trkpt>
      <trkpt lat="44.20913" lon="2.15028">
        <ele>505.79</ele>
        <time>2021-08-08T13:08:37Z</time>
      </trkpt>
      <trkpt lat="44.20917" lon="2.15021">
        <ele>506.75</ele>
        <time>2021-08-08T13:08:43Z</time>
      </trkpt>
      <trkpt lat="44.20918" lon="2.15017">
        <ele>507.23</ele>
        <time>2021-08-08T13:08:46Z</time>
      </trkpt>
      <trkpt lat="44.20926" lon="2.15">
        <ele>508.19</ele>
        <time>2021-08-08T13:08:59Z</time>
      </trkpt>
      <trkpt lat="44.20934" lon="2.1498">
        <ele>509.64</ele>
        <time>2021-08-08T13:09:14Z</time>
      </trkpt>
      <trkpt lat="44.20936" lon="2.14973">
        <ele>510.6</ele>
        <time>2021-08-08T13:09:19Z</time>
      </trkpt>
      <trkpt lat="44.20944" lon="2.14951">
        <ele>512.52</ele>
        <time>2021-08-08T13:09:37Z</time>
      </trkpt>
      <trkpt lat="44.20951" lon="2.14934">
        <ele>513.48</ele>
        <time>2021-08-08T13:09:50Z</time>
      </trkpt>
      <trkpt lat="44.20953" lon="2.14926">
        <ele>514.44</ele>
        <time>2021-08-08T13:09:56Z</time>
      </trkpt>
      <trkpt lat="44.20955" lon="2.1492">
        <ele>515.4</ele>
        <time>2021-08-08T13:10:11Z</time>
      </trkpt>
      <trkpt lat="44.20957" lon="2.14914">
        <ele>515.88</ele>
        <time>2021-08-08T13:10:23Z</time>
      </trkpt>
      <trkpt lat="44.20961" lon="2.14907">
        <ele>516.37</ele>
        <time>2021-08-08T13:10:38Z</time>
      </trkpt>
      <trkpt lat="44.2097" lon="2.14893">
        <ele>517.81</ele>
        <time>2021-08-08T13:10:52Z</time>
      </trkpt>
      <trkpt lat="44.20973" lon="2.14888">
        <ele>518.77</ele>
        <time>2021-08-08T13:10:57Z</time>
      </trkpt>
      <trkpt lat="44.20983" lon="2.1487">
        <ele>520.69</ele>
        <time>2021-08-08T13:11:13Z</time>
      </trkpt>
      <trkpt lat="44.20992" lon="2.14852">
        <ele>522.13</ele>
        <time>2021-08-08T13:11:28Z</time>
      </trkpt>
      <trkpt lat="44.20997" lon="2.14842">
        <ele>523.58</ele>
        <time>2021-08-08T13:11:40Z</time>
      </trkpt>
      <trkpt lat="44.20998" lon="2.1484">
        <ele>524.06</ele>
        <time>2021-08-08T13:11:42Z</time>
      </trkpt>
      <trkpt lat="44.2101" lon="2.14821">
        <ele>525.5</ele>
        <time>2021-08-08T13:11:57Z</time>
      </trkpt>
      <trkpt lat="44.2102" lon="2.14804">
        <ele>526.94</ele>
        <time>2021-08-08T13:12:12Z</time>
      </trkpt>
      <trkpt lat="44.21024" lon="2.14796">
        <ele>528.38</ele>
        <time>2021-08-08T13:12:19Z</time>
      </trkpt>
      <trkpt lat="44.21031" lon="2.14781">
        <ele>529.82</ele>
        <time>2021-08-08T13:12:32Z</time>
      </trkpt>
      <trkpt lat="44.21043" lon="2.14758">
        <ele>532.23</ele>
        <time>2021-08-08T13:12:51Z</time>
      </trkpt>
      <trkpt lat="44.2105" lon="2.14748">
        <ele>533.19</ele>
        <time>2021-08-08T13:13:01Z</time>
      </trkpt>
      <trkpt lat="44.21063" lon="2.14735">
        <ele>534.63</ele>
        <time>2021-08-08T13:13:18Z</time>
      </trkpt>
      <trkpt lat="44.21073" lon="2.14725">
        <ele>536.07</ele>
        <time>2021-08-08T13:13:32Z</time>
      </trkpt>
      <trkpt lat="44.21074" lon="2.14724">
        <ele>536.07</ele>
        <time>2021-08-08T13:13:33Z</time>
      </trkpt>
      <trkpt lat="44.2108" lon="2.14718">
        <ele>537.03</ele>
        <time>2021-08-08T13:13:40Z</time>
      </trkpt>
      <trkpt lat="44.2109" lon="2.14702">
        <ele>539.44</ele>
        <time>2021-08-08T13:13:56Z</time>
      </trkpt>
      <trkpt lat="44.21097" lon="2.14692">
        <ele>540.4</ele>
        <time>2021-08-08T13:14:07Z</time>
      </trkpt>
      <trkpt lat="44.21106" lon="2.14675">
        <ele>542.32</ele>
        <time>2021-08-08T13:14:23Z</time>
      </trkpt>
      <trkpt lat="44.2111" lon="2.1467">
        <ele>542.8</ele>
        <time>2021-08-08T13:14:29Z</time>
      </trkpt>
      <trkpt lat="44.21111" lon="2.14668">
        <ele>543.28</ele>
        <time>2021-08-08T13:14:31Z</time>
      </trkpt>
      <trkpt lat="44.21119" lon="2.14653">
        <ele>545.2</ele>
        <time>2021-08-08T13:14:46Z</time>
      </trkpt>
      <trkpt lat="44.21124" lon="2.14637">
        <ele>547.61</ele>
        <time>2021-08-08T13:15:02Z</time>
      </trkpt>
      <trkpt lat="44.21128" lon="2.14627">
        <ele>549.53</ele>
        <time>2021-08-08T13:15:18Z</time>
      </trkpt>
      <trkpt lat="44.21129" lon="2.14613">
        <ele>550.97</ele>
        <time>2021-08-08T13:15:31Z</time>
      </trkpt>
      <trkpt lat="44.21125" lon="2.1461">
        <ele>551.45</ele>
        <time>2021-08-08T13:15:52Z</time>
      </trkpt>
      <trkpt lat="44.21122" lon="2.14605">
        <ele>551.45</ele>
        <time>2021-08-08T13:16:11Z</time>
      </trkpt>
      <trkpt lat="44.21119" lon="2.14602">
        <ele>551.45</ele>
        <time>2021-08-08T13:16:14Z</time>
      </trkpt>
      <trkpt lat="44.21103" lon="2.14576">
        <ele>551.45</ele>
        <time>2021-08-08T13:16:35Z</time>
      </trkpt>
      <trkpt lat="44.21087" lon="2.14553">
        <ele>551.45</ele>
        <time>2021-08-08T13:16:54Z</time>
      </trkpt>
      <trkpt lat="44.21074" lon="2.14536">
        <ele>552.9</ele>
        <time>2021-08-08T13:17:09Z</time>
      </trkpt>
      <trkpt lat="44.21066" lon="2.14531">
        <ele>552.9</ele>
        <time>2021-08-08T13:17:17Z</time>
      </trkpt>
      <trkpt lat="44.21051" lon="2.14521">
        <ele>553.38</ele>
        <time>2021-08-08T13:17:37Z</time>
      </trkpt>
      <trkpt lat="44.21049" lon="2.14521">
        <ele>553.38</ele>
        <time>2021-08-08T13:18:03Z</time>
      </trkpt>
      <trkpt lat="44.21046" lon="2.14528">
        <ele>552.9</ele>
        <time>2021-08-08T13:18:20Z</time>
      </trkpt>
      <trkpt lat="44.21045" lon="2.14529">
        <ele>552.41</ele>
        <time>2021-08-08T13:18:36Z</time>
      </trkpt>
      <trkpt lat="44.21042" lon="2.14528">
        <ele>552.41</ele>
        <time>2021-08-08T13:18:59Z</time>
      </trkpt>
      <trkpt lat="44.21034" lon="2.14534">
        <ele>552.41</ele>
        <time>2021-08-08T13:19:14Z</time>
      </trkpt>
      <trkpt lat="44.21019" lon="2.14541">
        <ele>550.01</ele>
        <time>2021-08-08T13:19:32Z</time>
      </trkpt>
      <trkpt lat="44.21008" lon="2.14546">
        <ele>549.05</ele>
        <time>2021-08-08T13:19:43Z</time>
      </trkpt>
      <trkpt lat="44.20999" lon="2.14543">
        <ele>548.57</ele>
        <time>2021-08-08T13:19:52Z</time>
      </trkpt>
      <trkpt lat="44.20991" lon="2.14538">
        <ele>547.61</ele>
        <time>2021-08-08T13:20:00Z</time>
      </trkpt>
      <trkpt lat="44.20974" lon="2.14534">
        <ele>544.24</ele>
        <time>2021-08-08T13:20:18Z</time>
      </trkpt>
      <trkpt lat="44.20969" lon="2.14535">
        <ele>543.76</ele>
        <time>2021-08-08T13:20:39Z</time>
      </trkpt>
      <trkpt lat="44.20964" lon="2.14536">
        <ele>543.76</ele>
        <time>2021-08-08T13:21:17Z</time>
      </trkpt>
      <trkpt lat="44.20946" lon="2.14533">
        <ele>542.32</ele>
        <time>2021-08-08T13:21:35Z</time>
      </trkpt>
      <trkpt lat="44.20923" lon="2.14529">
        <ele>540.4</ele>
        <time>2021-08-08T13:21:57Z</time>
      </trkpt>
      <trkpt lat="44.20902" lon="2.14525">
        <ele>538.48</ele>
        <time>2021-08-08T13:22:16Z</time>
      </trkpt>
      <trkpt lat="44.20883" lon="2.14526">
        <ele>537.99</ele>
        <time>2021-08-08T13:22:34Z</time>
      </trkpt>
      <trkpt lat="44.20867" lon="2.14544">
        <ele>536.55</ele>
        <time>2021-08-08T13:22:52Z</time>
      </trkpt>
      <trkpt lat="44.20851" lon="2.14569">
        <ele>536.07</ele>
        <time>2021-08-08T13:23:15Z</time>
      </trkpt>
      <trkpt lat="44.20839" lon="2.14588">
        <ele>534.63</ele>
        <time>2021-08-08T13:23:33Z</time>
      </trkpt>
      <trkpt lat="44.20828" lon="2.14607">
        <ele>534.15</ele>
        <time>2021-08-08T13:23:50Z</time>
      </trkpt>
      <trkpt lat="44.20818" lon="2.14623">
        <ele>532.71</ele>
        <time>2021-08-08T13:24:09Z</time>
      </trkpt>
      <trkpt lat="44.20804" lon="2.14645">
        <ele>531.27</ele>
        <time>2021-08-08T13:24:28Z</time>
      </trkpt>
      <trkpt lat="44.20795" lon="2.14661">
        <ele>530.3</ele>
        <time>2021-08-08T13:24:44Z</time>
      </trkpt>
      <trkpt lat="44.20777" lon="2.14664">
        <ele>528.86</ele>
        <time>2021-08-08T13:25:01Z</time>
      </trkpt>
      <trkpt lat="44.20755" lon="2.1467">
        <ele>528.38</ele>
        <time>2021-08-08T13:25:19Z</time>
      </trkpt>
      <trkpt lat="44.20749" lon="2.14671">
        <ele>527.42</ele>
        <time>2021-08-08T13:25:30Z</time>
      </trkpt>
      <trkpt lat="44.20737" lon="2.14678">
        <ele>525.98</ele>
        <time>2021-08-08T13:25:44Z</time>
      </trkpt>
      <trkpt lat="44.20737" lon="2.14679">
        <ele>525.98</ele>
        <time>2021-08-08T13:25:45Z</time>
      </trkpt>
      <trkpt lat="44.20727" lon="2.14692">
        <ele>525.02</ele>
        <time>2021-08-08T13:26:00Z</time>
      </trkpt>
      <trkpt lat="44.20716" lon="2.14713">
        <ele>523.58</ele>
        <time>2021-08-08T13:26:17Z</time>
      </trkpt>
      <trkpt lat="44.20706" lon="2.14745">
        <ele>521.65</ele>
        <time>2021-08-08T13:26:39Z</time>
      </trkpt>
      <trkpt lat="44.20705" lon="2.14749">
        <ele>521.65</ele>
        <time>2021-08-08T13:26:55Z</time>
      </trkpt>
      <trkpt lat="44.20691" lon="2.14768">
        <ele>519.73</ele>
        <time>2021-08-08T13:27:16Z</time>
      </trkpt>
      <trkpt lat="44.20677" lon="2.14791">
        <ele>517.33</ele>
        <time>2021-08-08T13:27:39Z</time>
      </trkpt>
      <trkpt lat="44.20666" lon="2.14811">
        <ele>514.92</ele>
        <time>2021-08-08T13:27:59Z</time>
      </trkpt>
      <trkpt lat="44.20657" lon="2.14826">
        <ele>512.04</ele>
        <time>2021-08-08T13:28:17Z</time>
      </trkpt>
      <trkpt lat="44.20647" lon="2.14843">
        <ele>509.16</ele>
        <time>2021-08-08T13:28:34Z</time>
      </trkpt>
      <trkpt lat="44.20636" lon="2.14862">
        <ele>506.27</ele>
        <time>2021-08-08T13:28:55Z</time>
      </trkpt>
      <trkpt lat="44.20629" lon="2.14874">
        <ele>503.87</ele>
        <time>2021-08-08T13:29:11Z</time>
      </trkpt>
      <trkpt lat="44.20619" lon="2.14883">
        <ele>500.98</ele>
        <time>2021-08-08T13:29:27Z</time>
      </trkpt>
      <trkpt lat="44.20615" lon="2.1487">
        <ele>502.43</ele>
        <time>2021-08-08T13:29:38Z</time>
      </trkpt>
      <trkpt lat="44.20612" lon="2.14859">
        <ele>503.87</ele>
        <time>2021-08-08T13:29:50Z</time>
      </trkpt>
      <trkpt lat="44.20611" lon="2.14846">
        <ele>505.79</ele>
        <time>2021-08-08T13:30:02Z</time>
      </trkpt>
      <trkpt lat="44.20608" lon="2.14827">
        <ele>507.23</ele>
        <time>2021-08-08T13:30:17Z</time>
      </trkpt>
      <trkpt lat="44.20608" lon="2.14803">
        <ele>508.67</ele>
        <time>2021-08-08T13:30:35Z</time>
      </trkpt>
      <trkpt lat="44.20608" lon="2.14777">
        <ele>508.67</ele>
        <time>2021-08-08T13:30:55Z</time>
      </trkpt>
      <trkpt lat="44.20608" lon="2.14775">
        <ele>507.23</ele>
        <time>2021-08-08T13:30:57Z</time>
      </trkpt>
      <trkpt lat="44.20606" lon="2.14747">
        <ele>505.31</ele>
        <time>2021-08-08T13:31:15Z</time>
      </trkpt>
      <trkpt lat="44.20603" lon="2.14719">
        <ele>504.35</ele>
        <time>2021-08-08T13:31:31Z</time>
      </trkpt>
      <trkpt lat="44.20601" lon="2.1471">
        <ele>504.35</ele>
        <time>2021-08-08T13:31:38Z</time>
      </trkpt>
      <trkpt lat="44.20596" lon="2.14693">
        <ele>505.79</ele>
        <time>2021-08-08T13:31:51Z</time>
      </trkpt>
      <trkpt lat="44.20591" lon="2.14676">
        <ele>507.23</ele>
        <time>2021-08-08T13:32:07Z</time>
      </trkpt>
      <trkpt lat="44.20588" lon="2.14647">
        <ele>508.19</ele>
        <time>2021-08-08T13:32:25Z</time>
      </trkpt>
      <trkpt lat="44.2059" lon="2.14622">
        <ele>510.12</ele>
        <time>2021-08-08T13:32:41Z</time>
      </trkpt>
      <trkpt lat="44.20595" lon="2.14596">
        <ele>510.6</ele>
        <time>2021-08-08T13:32:58Z</time>
      </trkpt>
      <trkpt lat="44.20588" lon="2.1458">
        <ele>511.56</ele>
        <time>2021-08-08T13:33:14Z</time>
      </trkpt>
      <trkpt lat="44.20584" lon="2.14576">
        <ele>512.52</ele>
        <time>2021-08-08T13:33:34Z</time>
      </trkpt>
      <trkpt lat="44.20564" lon="2.14567">
        <ele>514.92</ele>
        <time>2021-08-08T13:33:52Z</time>
      </trkpt>
      <trkpt lat="44.20549" lon="2.14561">
        <ele>517.33</ele>
        <time>2021-08-08T13:34:09Z</time>
      </trkpt>
      <trkpt lat="44.20539" lon="2.14552">
        <ele>517.81</ele>
        <time>2021-08-08T13:34:22Z</time>
      </trkpt>
      <trkpt lat="44.20526" lon="2.14543">
        <ele>519.25</ele>
        <time>2021-08-08T13:34:36Z</time>
      </trkpt>
      <trkpt lat="44.20508" lon="2.14536">
        <ele>519.73</ele>
        <time>2021-08-08T13:34:52Z</time>
      </trkpt>
      <trkpt lat="44.20487" lon="2.14524">
        <ele>517.33</ele>
        <time>2021-08-08T13:35:12Z</time>
      </trkpt>
      <trkpt lat="44.20487" lon="2.14523">
        <ele>517.33</ele>
        <time>2021-08-08T13:35:29Z</time>
      </trkpt>
      <trkpt lat="44.20484" lon="2.14526">
        <ele>517.33</ele>
        <time>2021-08-08T13:35:58Z</time>
      </trkpt>
      <trkpt lat="44.20481" lon="2.14521">
        <ele>516.37</ele>
        <time>2021-08-08T13:36:19Z</time>
      </trkpt>
      <trkpt lat="44.20477" lon="2.1452">
        <ele>515.4</ele>
        <time>2021-08-08T13:36:35Z</time>
      </trkpt>
      <trkpt lat="44.20474" lon="2.14521">
        <ele>514.92</ele>
        <time>2021-08-08T13:36:49Z</time>
      </trkpt>
      <trkpt lat="44.20475" lon="2.14521">
        <ele>514.44</ele>
        <time>2021-08-08T13:37:14Z</time>
      </trkpt>
      <trkpt lat="44.20474" lon="2.1452">
        <ele>514.44</ele>
        <time>2021-08-08T13:37:33Z</time>
      </trkpt>
      <trkpt lat="44.20476" lon="2.14518">
        <ele>514.44</ele>
        <time>2021-08-08T13:37:52Z</time>
      </trkpt>
      <trkpt lat="44.20477" lon="2.1452">
        <ele>514.44</ele>
        <time>2021-08-08T13:38:06Z</time>
      </trkpt>
      <trkpt lat="44.20477" lon="2.14519">
        <ele>514.92</ele>
        <time>2021-08-08T13:38:23Z</time>
      </trkpt>
      <trkpt lat="44.20478" lon="2.1452">
        <ele>515.88</ele>
        <time>2021-08-08T13:38:54Z</time>
      </trkpt>
      <trkpt lat="44.20478" lon="2.14521">
        <ele>515.88</ele>
        <time>2021-08-08T13:39:15Z</time>
      </trkpt>
      <trkpt lat="44.20478" lon="2.1452">
        <ele>515.88</ele>
        <time>2021-08-08T13:39:38Z</time>
      </trkpt>
      <trkpt lat="44.20477" lon="2.14518">
        <ele>515.88</ele>
        <time>2021-08-08T13:40:04Z</time>
      </trkpt>
      <trkpt lat="44.20476" lon="2.14518">
        <ele>515.88</ele>
        <time>2021-08-08T13:40:22Z</time>
      </trkpt>
      <trkpt lat="44.20476" lon="2.14519">
        <ele>514.92</ele>
        <time>2021-08-08T13:40:40Z</time>
      </trkpt>
      <trkpt lat="44.20476" lon="2.1452">
        <ele>514.92</ele>
        <time>2021-08-08T13:41:06Z</time>
      </trkpt>
      <trkpt lat="44.20473" lon="2.14521">
        <ele>514.44</ele>
        <time>2021-08-08T13:41:21Z</time>
      </trkpt>
      <trkpt lat="44.20473" lon="2.14525">
        <ele>513.96</ele>
        <time>2021-08-08T13:41:34Z</time>
      </trkpt>
      <trkpt lat="44.20474" lon="2.14524">
        <ele>513.96</ele>
        <time>2021-08-08T13:42:03Z</time>
      </trkpt>
      <trkpt lat="44.20473" lon="2.14525">
        <ele>513.96</ele>
        <time>2021-08-08T13:42:22Z</time>
      </trkpt>
      <trkpt lat="44.20473" lon="2.14527">
        <ele>513.96</ele>
        <time>2021-08-08T13:42:50Z</time>
      </trkpt>
      <trkpt lat="44.20472" lon="2.14526">
        <ele>513.96</ele>
        <time>2021-08-08T13:43:22Z</time>
      </trkpt>
      <trkpt lat="44.20472" lon="2.14525">
        <ele>514.44</ele>
        <time>2021-08-08T13:43:47Z</time>
      </trkpt>
      <trkpt lat="44.20473" lon="2.14525">
        <ele>514.44</ele>
        <time>2021-08-08T13:44:14Z</time>
      </trkpt>
      <trkpt lat="44.20473" lon="2.14524">
        <ele>514.44</ele>
        <time>2021-08-08T13:44:42Z</time>
      </trkpt>
      <trkpt lat="44.20473" lon="2.14527">
        <ele>514.44</ele>
        <time>2021-08-08T13:45:10Z</time>
      </trkpt>
      <trkpt lat="44.20472" lon="2.14524">
        <ele>514.44</ele>
        <time>2021-08-08T13:45:39Z</time>
      </trkpt>
      <trkpt lat="44.20473" lon="2.14524">
        <ele>513.96</ele>
        <time>2021-08-08T13:46:02Z</time>
      </trkpt>
      <trkpt lat="44.20473" lon="2.14524">
        <ele>513.96</ele>
        <time>2021-08-08T13:46:33Z</time>
      </trkpt>
      <trkpt lat="44.20473" lon="2.14526">
        <ele>514.44</ele>
        <time>2021-08-08T13:47:09Z</time>
      </trkpt>
      <trkpt lat="44.20476" lon="2.14523">
        <ele>516.37</ele>
        <time>2021-08-08T13:47:27Z</time>
      </trkpt>
      <trkpt lat="44.20477" lon="2.14524">
        <ele>516.37</ele>
        <time>2021-08-08T13:47:28Z</time>
      </trkpt>
      <trkpt lat="44.20475" lon="2.14531">
        <ele>514.44</ele>
        <time>2021-08-08T13:47:42Z</time>
      </trkpt>
      <trkpt lat="44.20473" lon="2.1453">
        <ele>512.52</ele>
        <time>2021-08-08T13:47:55Z</time>
      </trkpt>
      <trkpt lat="44.20467" lon="2.14535">
        <ele>510.12</ele>
        <time>2021-08-08T13:48:07Z</time>
      </trkpt>
      <trkpt lat="44.20465" lon="2.14536">
        <ele>508.19</ele>
        <time>2021-08-08T13:48:21Z</time>
      </trkpt>
      <trkpt lat="44.20466" lon="2.14542">
        <ele>507.23</ele>
        <time>2021-08-08T13:48:33Z</time>
      </trkpt>
      <trkpt lat="44.20462" lon="2.14541">
        <ele>504.83</ele>
        <time>2021-08-08T13:48:45Z</time>
      </trkpt>
      <trkpt lat="44.20461" lon="2.14538">
        <ele>506.27</ele>
        <time>2021-08-08T13:48:52Z</time>
      </trkpt>
      <trkpt lat="44.20463" lon="2.14533">
        <ele>506.27</ele>
        <time>2021-08-08T13:49:08Z</time>
      </trkpt>
      <trkpt lat="44.20463" lon="2.14531">
        <ele>506.27</ele>
        <time>2021-08-08T13:49:32Z</time>
      </trkpt>
      <trkpt lat="44.2046" lon="2.14533">
        <ele>506.75</ele>
        <time>2021-08-08T13:50:01Z</time>
      </trkpt>
      <trkpt lat="44.20462" lon="2.14533">
        <ele>506.75</ele>
        <time>2021-08-08T13:50:25Z</time>
      </trkpt>
      <trkpt lat="44.20463" lon="2.14534">
        <ele>506.75</ele>
        <time>2021-08-08T13:50:45Z</time>
      </trkpt>
      <trkpt lat="44.20462" lon="2.14539">
        <ele>506.75</ele>
        <time>2021-08-08T13:51:01Z</time>
      </trkpt>
      <trkpt lat="44.20462" lon="2.14543">
        <ele>505.31</ele>
        <time>2021-08-08T13:51:08Z</time>
      </trkpt>
      <trkpt lat="44.20465" lon="2.14542">
        <ele>506.75</ele>
        <time>2021-08-08T13:51:18Z</time>
      </trkpt>
      <trkpt lat="44.20467" lon="2.14539">
        <ele>508.67</ele>
        <time>2021-08-08T13:51:32Z</time>
      </trkpt>
      <trkpt lat="44.2047" lon="2.14534">
        <ele>511.56</ele>
        <time>2021-08-08T13:51:44Z</time>
      </trkpt>
      <trkpt lat="44.20472" lon="2.14532">
        <ele>512.52</ele>
        <time>2021-08-08T13:51:58Z</time>
      </trkpt>
      <trkpt lat="44.20473" lon="2.14533">
        <ele>513</ele>
        <time>2021-08-08T13:52:19Z</time>
      </trkpt>
      <trkpt lat="44.20475" lon="2.14534">
        <ele>513.96</ele>
        <time>2021-08-08T13:52:38Z</time>
      </trkpt>
      <trkpt lat="44.20477" lon="2.14533">
        <ele>514.44</ele>
        <time>2021-08-08T13:53:05Z</time>
      </trkpt>
      <trkpt lat="44.2048" lon="2.14527">
        <ele>515.88</ele>
        <time>2021-08-08T13:53:18Z</time>
      </trkpt>
      <trkpt lat="44.20476" lon="2.14524">
        <ele>516.37</ele>
        <time>2021-08-08T13:53:35Z</time>
      </trkpt>
      <trkpt lat="44.20474" lon="2.14525">
        <ele>515.4</ele>
        <time>2021-08-08T13:53:48Z</time>
      </trkpt>
      <trkpt lat="44.20473" lon="2.14526">
        <ele>514.44</ele>
        <time>2021-08-08T13:54:06Z</time>
      </trkpt>
      <trkpt lat="44.20472" lon="2.14528">
        <ele>514.44</ele>
        <time>2021-08-08T13:54:36Z</time>
      </trkpt>
      <trkpt lat="44.20473" lon="2.14527">
        <ele>514.44</ele>
        <time>2021-08-08T13:55:02Z</time>
      </trkpt>
      <trkpt lat="44.20472" lon="2.14527">
        <ele>514.44</ele>
        <time>2021-08-08T13:55:36Z</time>
      </trkpt>
      <trkpt lat="44.20472" lon="2.14528">
        <ele>514.44</ele>
        <time>2021-08-08T13:56:02Z</time>
      </trkpt>
      <trkpt lat="44.20477" lon="2.14523">
        <ele>516.85</ele>
        <time>2021-08-08T13:56:15Z</time>
      </trkpt>
      <trkpt lat="44.20484" lon="2.14523">
        <ele>519.25</ele>
        <time>2021-08-08T13:56:32Z</time>
      </trkpt>
      <trkpt lat="44.20502" lon="2.14533">
        <ele>520.69</ele>
        <time>2021-08-08T13:56:50Z</time>
      </trkpt>
      <trkpt lat="44.20517" lon="2.1454">
        <ele>521.65</ele>
        <time>2021-08-08T13:57:06Z</time>
      </trkpt>
      <trkpt lat="44.20528" lon="2.14547">
        <ele>521.65</ele>
        <time>2021-08-08T13:57:20Z</time>
      </trkpt>
      <trkpt lat="44.2054" lon="2.14556">
        <ele>519.73</ele>
        <time>2021-08-08T13:57:35Z</time>
      </trkpt>
      <trkpt lat="44.20552" lon="2.14541">
        <ele>521.17</ele>
        <time>2021-08-08T13:57:48Z</time>
      </trkpt>
      <trkpt lat="44.20565" lon="2.14531">
        <ele>524.06</ele>
        <time>2021-08-08T13:58:03Z</time>
      </trkpt>
      <trkpt lat="44.20573" lon="2.14523">
        <ele>524.54</ele>
        <time>2021-08-08T13:58:12Z</time>
      </trkpt>
      <trkpt lat="44.20581" lon="2.14503">
        <ele>526.94</ele>
        <time>2021-08-08T13:58:27Z</time>
      </trkpt>
      <trkpt lat="44.20584" lon="2.14493">
        <ele>527.9</ele>
        <time>2021-08-08T13:58:34Z</time>
      </trkpt>
      <trkpt lat="44.20585" lon="2.1449">
        <ele>527.9</ele>
        <time>2021-08-08T13:58:36Z</time>
      </trkpt>
      <trkpt lat="44.20591" lon="2.14462">
        <ele>529.82</ele>
        <time>2021-08-08T13:58:55Z</time>
      </trkpt>
      <trkpt lat="44.20593" lon="2.14434">
        <ele>532.23</ele>
        <time>2021-08-08T13:59:13Z</time>
      </trkpt>
      <trkpt lat="44.20595" lon="2.14414">
        <ele>533.19</ele>
        <time>2021-08-08T13:59:26Z</time>
      </trkpt>
      <trkpt lat="44.20595" lon="2.14411">
        <ele>534.15</ele>
        <time>2021-08-08T13:59:28Z</time>
      </trkpt>
      <trkpt lat="44.20606" lon="2.14392">
        <ele>535.59</ele>
        <time>2021-08-08T13:59:45Z</time>
      </trkpt>
      <trkpt lat="44.20626" lon="2.14374">
        <ele>537.99</ele>
        <time>2021-08-08T14:00:06Z</time>
      </trkpt>
      <trkpt lat="44.20627" lon="2.14373">
        <ele>537.99</ele>
        <time>2021-08-08T14:00:07Z</time>
      </trkpt>
      <trkpt lat="44.20643" lon="2.14351">
        <ele>537.99</ele>
        <time>2021-08-08T14:00:26Z</time>
      </trkpt>
      <trkpt lat="44.20657" lon="2.14328">
        <ele>538.96</ele>
        <time>2021-08-08T14:00:43Z</time>
      </trkpt>
      <trkpt lat="44.20672" lon="2.14302">
        <ele>539.92</ele>
        <time>2021-08-08T14:01:03Z</time>
      </trkpt>
      <trkpt lat="44.20685" lon="2.14275">
        <ele>541.36</ele>
        <time>2021-08-08T14:01:21Z</time>
      </trkpt>
      <trkpt lat="44.20689" lon="2.14243">
        <ele>542.8</ele>
        <time>2021-08-08T14:01:40Z</time>
      </trkpt>
      <trkpt lat="44.20682" lon="2.14211">
        <ele>543.28</ele>
        <time>2021-08-08T14:02:00Z</time>
      </trkpt>
      <trkpt lat="44.20666" lon="2.14189">
        <ele>543.28</ele>
        <time>2021-08-08T14:02:18Z</time>
      </trkpt>
      <trkpt lat="44.20648" lon="2.14165">
        <ele>540.88</ele>
        <time>2021-08-08T14:02:38Z</time>
      </trkpt>
      <trkpt lat="44.20632" lon="2.14141">
        <ele>539.44</ele>
        <time>2021-08-08T14:02:57Z</time>
      </trkpt>
      <trkpt lat="44.20618" lon="2.14116">
        <ele>538.48</ele>
        <time>2021-08-08T14:03:14Z</time>
      </trkpt>
      <trkpt lat="44.20597" lon="2.14089">
        <ele>537.99</ele>
        <time>2021-08-08T14:03:36Z</time>
      </trkpt>
      <trkpt lat="44.20579" lon="2.1407">
        <ele>537.99</ele>
        <time>2021-08-08T14:03:55Z</time>
      </trkpt>
      <trkpt lat="44.20564" lon="2.14044">
        <ele>539.44</ele>
        <time>2021-08-08T14:04:15Z</time>
      </trkpt>
      <trkpt lat="44.20563" lon="2.14042">
        <ele>539.44</ele>
        <time>2021-08-08T14:04:16Z</time>
      </trkpt>
      <trkpt lat="44.20556" lon="2.14007">
        <ele>539.44</ele>
        <time>2021-08-08T14:04:36Z</time>
      </trkpt>
      <trkpt lat="44.20556" lon="2.14002">
        <ele>539.44</ele>
        <time>2021-08-08T14:04:40Z</time>
      </trkpt>
      <trkpt lat="44.20557" lon="2.13995">
        <ele>539.44</ele>
        <time>2021-08-08T14:04:44Z</time>
      </trkpt>
      <trkpt lat="44.20559" lon="2.13974">
        <ele>539.44</ele>
        <time>2021-08-08T14:04:57Z</time>
      </trkpt>
      <trkpt lat="44.20566" lon="2.13948">
        <ele>537.51</ele>
        <time>2021-08-08T14:05:15Z</time>
      </trkpt>
      <trkpt lat="44.20573" lon="2.13931">
        <ele>537.03</ele>
        <time>2021-08-08T14:05:27Z</time>
      </trkpt>
      <trkpt lat="44.20581" lon="2.13907">
        <ele>536.55</ele>
        <time>2021-08-08T14:05:46Z</time>
      </trkpt>
      <trkpt lat="44.2059" lon="2.13887">
        <ele>536.07</ele>
        <time>2021-08-08T14:06:03Z</time>
      </trkpt>
      <trkpt lat="44.20601" lon="2.1386">
        <ele>535.59</ele>
        <time>2021-08-08T14:06:23Z</time>
      </trkpt>
      <trkpt lat="44.2061" lon="2.13833">
        <ele>535.11</ele>
        <time>2021-08-08T14:06:43Z</time>
      </trkpt>
      <trkpt lat="44.20615" lon="2.13822">
        <ele>535.11</ele>
        <time>2021-08-08T14:06:58Z</time>
      </trkpt>
      <trkpt lat="44.20622" lon="2.13802">
        <ele>534.63</ele>
        <time>2021-08-08T14:07:13Z</time>
      </trkpt>
      <trkpt lat="44.20633" lon="2.13772">
        <ele>535.59</ele>
        <time>2021-08-08T14:07:33Z</time>
      </trkpt>
      <trkpt lat="44.20646" lon="2.13748">
        <ele>536.55</ele>
        <time>2021-08-08T14:07:50Z</time>
      </trkpt>
      <trkpt lat="44.20648" lon="2.13744">
        <ele>536.55</ele>
        <time>2021-08-08T14:07:54Z</time>
      </trkpt>
      <trkpt lat="44.2066" lon="2.13718">
        <ele>537.51</ele>
        <time>2021-08-08T14:08:13Z</time>
      </trkpt>
      <trkpt lat="44.20674" lon="2.13695">
        <ele>537.99</ele>
        <time>2021-08-08T14:08:33Z</time>
      </trkpt>
      <trkpt lat="44.20685" lon="2.13688">
        <ele>537.99</ele>
        <time>2021-08-08T14:08:47Z</time>
      </trkpt>
      <trkpt lat="44.20696" lon="2.13679">
        <ele>538.48</ele>
        <time>2021-08-08T14:08:58Z</time>
      </trkpt>
      <trkpt lat="44.20712" lon="2.13663">
        <ele>539.44</ele>
        <time>2021-08-08T14:09:15Z</time>
      </trkpt>
      <trkpt lat="44.20729" lon="2.13646">
        <ele>540.4</ele>
        <time>2021-08-08T14:09:32Z</time>
      </trkpt>
      <trkpt lat="44.20737" lon="2.13628">
        <ele>540.4</ele>
        <time>2021-08-08T14:09:45Z</time>
      </trkpt>
      <trkpt lat="44.20753" lon="2.13605">
        <ele>541.36</ele>
        <time>2021-08-08T14:10:05Z</time>
      </trkpt>
      <trkpt lat="44.20756" lon="2.13608">
        <ele>541.84</ele>
        <time>2021-08-08T14:10:09Z</time>
      </trkpt>
      <trkpt lat="44.20767" lon="2.13619">
        <ele>544.24</ele>
        <time>2021-08-08T14:10:24Z</time>
      </trkpt>
      <trkpt lat="44.20777" lon="2.13631">
        <ele>545.69</ele>
        <time>2021-08-08T14:10:36Z</time>
      </trkpt>
      <trkpt lat="44.20789" lon="2.13647">
        <ele>548.09</ele>
        <time>2021-08-08T14:10:51Z</time>
      </trkpt>
      <trkpt lat="44.20802" lon="2.13656">
        <ele>549.53</ele>
        <time>2021-08-08T14:11:06Z</time>
      </trkpt>
      <trkpt lat="44.20803" lon="2.13658">
        <ele>550.01</ele>
        <time>2021-08-08T14:11:08Z</time>
      </trkpt>
      <trkpt lat="44.20815" lon="2.1367">
        <ele>551.93</ele>
        <time>2021-08-08T14:11:24Z</time>
      </trkpt>
      <trkpt lat="44.20816" lon="2.13671">
        <ele>551.93</ele>
        <time>2021-08-08T14:11:25Z</time>
      </trkpt>
      <trkpt lat="44.2083" lon="2.13681">
        <ele>552.9</ele>
        <time>2021-08-08T14:11:39Z</time>
      </trkpt>
      <trkpt lat="44.20841" lon="2.13693">
        <ele>554.82</ele>
        <time>2021-08-08T14:11:55Z</time>
      </trkpt>
      <trkpt lat="44.20855" lon="2.13705">
        <ele>556.26</ele>
        <time>2021-08-08T14:12:12Z</time>
      </trkpt>
      <trkpt lat="44.20869" lon="2.13719">
        <ele>557.7</ele>
        <time>2021-08-08T14:12:28Z</time>
      </trkpt>
      <trkpt lat="44.20883" lon="2.13731">
        <ele>559.14</ele>
        <time>2021-08-08T14:12:43Z</time>
      </trkpt>
      <trkpt lat="44.20893" lon="2.13742">
        <ele>561.07</ele>
        <time>2021-08-08T14:12:56Z</time>
      </trkpt>
      <trkpt lat="44.20902" lon="2.1375">
        <ele>562.51</ele>
        <time>2021-08-08T14:13:10Z</time>
      </trkpt>
      <trkpt lat="44.20914" lon="2.13759">
        <ele>564.91</ele>
        <time>2021-08-08T14:13:27Z</time>
      </trkpt>
      <trkpt lat="44.20928" lon="2.13769">
        <ele>567.32</ele>
        <time>2021-08-08T14:13:43Z</time>
      </trkpt>
      <trkpt lat="44.20948" lon="2.13768">
        <ele>569.24</ele>
        <time>2021-08-08T14:14:01Z</time>
      </trkpt>
      <trkpt lat="44.20965" lon="2.13753">
        <ele>571.16</ele>
        <time>2021-08-08T14:14:17Z</time>
      </trkpt>
      <trkpt lat="44.20978" lon="2.13741">
        <ele>573.08</ele>
        <time>2021-08-08T14:14:31Z</time>
      </trkpt>
      <trkpt lat="44.20989" lon="2.1373">
        <ele>574.53</ele>
        <time>2021-08-08T14:14:46Z</time>
      </trkpt>
      <trkpt lat="44.21004" lon="2.13717">
        <ele>576.45</ele>
        <time>2021-08-08T14:15:02Z</time>
      </trkpt>
      <trkpt lat="44.21011" lon="2.13713">
        <ele>576.93</ele>
        <time>2021-08-08T14:15:09Z</time>
      </trkpt>
      <trkpt lat="44.21023" lon="2.13701">
        <ele>578.37</ele>
        <time>2021-08-08T14:15:24Z</time>
      </trkpt>
      <trkpt lat="44.2103" lon="2.13694">
        <ele>580.77</ele>
        <time>2021-08-08T14:15:37Z</time>
      </trkpt>
      <trkpt lat="44.21045" lon="2.13686">
        <ele>581.25</ele>
        <time>2021-08-08T14:15:51Z</time>
      </trkpt>
      <trkpt lat="44.21055" lon="2.13682">
        <ele>583.18</ele>
        <time>2021-08-08T14:16:00Z</time>
      </trkpt>
      <trkpt lat="44.21068" lon="2.13676">
        <ele>585.1</ele>
        <time>2021-08-08T14:16:15Z</time>
      </trkpt>
      <trkpt lat="44.21079" lon="2.1367">
        <ele>586.54</ele>
        <time>2021-08-08T14:16:29Z</time>
      </trkpt>
      <trkpt lat="44.21101" lon="2.13668">
        <ele>588.95</ele>
        <time>2021-08-08T14:16:47Z</time>
      </trkpt>
      <trkpt lat="44.21117" lon="2.13666">
        <ele>590.39</ele>
        <time>2021-08-08T14:17:02Z</time>
      </trkpt>
      <trkpt lat="44.21115" lon="2.13666">
        <ele>590.39</ele>
        <time>2021-08-08T14:17:20Z</time>
      </trkpt>
      <trkpt lat="44.21113" lon="2.13667">
        <ele>590.39</ele>
        <time>2021-08-08T14:17:36Z</time>
      </trkpt>
      <trkpt lat="44.21108" lon="2.1367">
        <ele>588.95</ele>
        <time>2021-08-08T14:17:43Z</time>
      </trkpt>
      <trkpt lat="44.21108" lon="2.13669">
        <ele>588.95</ele>
        <time>2021-08-08T14:17:55Z</time>
      </trkpt>
      <trkpt lat="44.21109" lon="2.13667">
        <ele>590.39</ele>
        <time>2021-08-08T14:18:07Z</time>
      </trkpt>
      <trkpt lat="44.21103" lon="2.13673">
        <ele>590.39</ele>
        <time>2021-08-08T14:18:22Z</time>
      </trkpt>
      <trkpt lat="44.21108" lon="2.13667">
        <ele>588.95</ele>
        <time>2021-08-08T14:18:40Z</time>
      </trkpt>
      <trkpt lat="44.21119" lon="2.13666">
        <ele>590.39</ele>
        <time>2021-08-08T14:18:51Z</time>
      </trkpt>
      <trkpt lat="44.21129" lon="2.13666">
        <ele>591.35</ele>
        <time>2021-08-08T14:19:00Z</time>
      </trkpt>
      <trkpt lat="44.21136" lon="2.13666">
        <ele>591.83</ele>
        <time>2021-08-08T14:19:06Z</time>
      </trkpt>
      <trkpt lat="44.21138" lon="2.13666">
        <ele>591.83</ele>
        <time>2021-08-08T14:19:08Z</time>
      </trkpt>
      <trkpt lat="44.21158" lon="2.13666">
        <ele>593.27</ele>
        <time>2021-08-08T14:19:26Z</time>
      </trkpt>
      <trkpt lat="44.21174" lon="2.13661">
        <ele>594.23</ele>
        <time>2021-08-08T14:19:41Z</time>
      </trkpt>
      <trkpt lat="44.21196" lon="2.13651">
        <ele>594.23</ele>
        <time>2021-08-08T14:19:59Z</time>
      </trkpt>
      <trkpt lat="44.21219" lon="2.1364">
        <ele>592.79</ele>
        <time>2021-08-08T14:20:19Z</time>
      </trkpt>
      <trkpt lat="44.21238" lon="2.13629">
        <ele>591.35</ele>
        <time>2021-08-08T14:20:38Z</time>
      </trkpt>
      <trkpt lat="44.21245" lon="2.13627">
        <ele>591.35</ele>
        <time>2021-08-08T14:20:44Z</time>
      </trkpt>
      <trkpt lat="44.21262" lon="2.13656">
        <ele>591.35</ele>
        <time>2021-08-08T14:21:05Z</time>
      </trkpt>
      <trkpt lat="44.21278" lon="2.13683">
        <ele>591.35</ele>
        <time>2021-08-08T14:21:25Z</time>
      </trkpt>
      <trkpt lat="44.2129" lon="2.13701">
        <ele>592.79</ele>
        <time>2021-08-08T14:21:38Z</time>
      </trkpt>
      <trkpt lat="44.21304" lon="2.13726">
        <ele>593.27</ele>
        <time>2021-08-08T14:21:56Z</time>
      </trkpt>
      <trkpt lat="44.21319" lon="2.13748">
        <ele>594.23</ele>
        <time>2021-08-08T14:22:13Z</time>
      </trkpt>
      <trkpt lat="44.21333" lon="2.13769">
        <ele>594.71</ele>
        <time>2021-08-08T14:22:30Z</time>
      </trkpt>
      <trkpt lat="44.2135" lon="2.13798">
        <ele>595.19</ele>
        <time>2021-08-08T14:22:51Z</time>
      </trkpt>
      <trkpt lat="44.21367" lon="2.13829">
        <ele>595.19</ele>
        <time>2021-08-08T14:23:13Z</time>
      </trkpt>
      <trkpt lat="44.21378" lon="2.13852">
        <ele>595.67</ele>
        <time>2021-08-08T14:23:30Z</time>
      </trkpt>
      <trkpt lat="44.21393" lon="2.13883">
        <ele>595.67</ele>
        <time>2021-08-08T14:23:49Z</time>
      </trkpt>
      <trkpt lat="44.21408" lon="2.13916">
        <ele>596.15</ele>
        <time>2021-08-08T14:24:11Z</time>
      </trkpt>
      <trkpt lat="44.21418" lon="2.13933">
        <ele>596.15</ele>
        <time>2021-08-08T14:24:29Z</time>
      </trkpt>
      <trkpt lat="44.21422" lon="2.1394">
        <ele>596.15</ele>
        <time>2021-08-08T14:24:44Z</time>
      </trkpt>
      <trkpt lat="44.21427" lon="2.13956">
        <ele>596.15</ele>
        <time>2021-08-08T14:25:00Z</time>
      </trkpt>
      <trkpt lat="44.21437" lon="2.1397">
        <ele>596.15</ele>
        <time>2021-08-08T14:25:18Z</time>
      </trkpt>
      <trkpt lat="44.21434" lon="2.13966">
        <ele>596.15</ele>
        <time>2021-08-08T14:25:27Z</time>
      </trkpt>
      <trkpt lat="44.21427" lon="2.13952">
        <ele>596.15</ele>
        <time>2021-08-08T14:25:36Z</time>
      </trkpt>
      <trkpt lat="44.21412" lon="2.1392">
        <ele>595.19</ele>
        <time>2021-08-08T14:25:57Z</time>
      </trkpt>
      <trkpt lat="44.21408" lon="2.13918">
        <ele>595.19</ele>
        <time>2021-08-08T14:26:01Z</time>
      </trkpt>
      <trkpt lat="44.21392" lon="2.13937">
        <ele>598.56</ele>
        <time>2021-08-08T14:26:19Z</time>
      </trkpt>
      <trkpt lat="44.21374" lon="2.13952">
        <ele>600.48</ele>
        <time>2021-08-08T14:26:36Z</time>
      </trkpt>
      <trkpt lat="44.21358" lon="2.13968">
        <ele>602.88</ele>
        <time>2021-08-08T14:26:53Z</time>
      </trkpt>
      <trkpt lat="44.2135" lon="2.13975">
        <ele>604.33</ele>
        <time>2021-08-08T14:27:01Z</time>
      </trkpt>
      <trkpt lat="44.21334" lon="2.13986">
        <ele>607.21</ele>
        <time>2021-08-08T14:27:18Z</time>
      </trkpt>
      <trkpt lat="44.21324" lon="2.13992">
        <ele>608.17</ele>
        <time>2021-08-08T14:27:28Z</time>
      </trkpt>
      <trkpt lat="44.21315" lon="2.13995">
        <ele>609.61</ele>
        <time>2021-08-08T14:27:39Z</time>
      </trkpt>
      <trkpt lat="44.21313" lon="2.13996">
        <ele>609.61</ele>
        <time>2021-08-08T14:27:41Z</time>
      </trkpt>
      <trkpt lat="44.21296" lon="2.14001">
        <ele>612.02</ele>
        <time>2021-08-08T14:27:58Z</time>
      </trkpt>
      <trkpt lat="44.2129" lon="2.14002">
        <ele>612.5</ele>
        <time>2021-08-08T14:28:04Z</time>
      </trkpt>
      <trkpt lat="44.21288" lon="2.14004">
        <ele>612.98</ele>
        <time>2021-08-08T14:28:06Z</time>
      </trkpt>
      <trkpt lat="44.21281" lon="2.14008">
        <ele>613.94</ele>
        <time>2021-08-08T14:28:13Z</time>
      </trkpt>
      <trkpt lat="44.21276" lon="2.1401">
        <ele>614.9</ele>
        <time>2021-08-08T14:28:23Z</time>
      </trkpt>
      <trkpt lat="44.2126" lon="2.14015">
        <ele>616.34</ele>
        <time>2021-08-08T14:28:39Z</time>
      </trkpt>
      <trkpt lat="44.21241" lon="2.14023">
        <ele>617.3</ele>
        <time>2021-08-08T14:28:56Z</time>
      </trkpt>
      <trkpt lat="44.21222" lon="2.14032">
        <ele>618.75</ele>
        <time>2021-08-08T14:29:12Z</time>
      </trkpt>
      <trkpt lat="44.21199" lon="2.1404">
        <ele>618.75</ele>
        <time>2021-08-08T14:29:32Z</time>
      </trkpt>
      <trkpt lat="44.21188" lon="2.14044">
        <ele>619.23</ele>
        <time>2021-08-08T14:29:42Z</time>
      </trkpt>
      <trkpt lat="44.21185" lon="2.14048">
        <ele>619.23</ele>
        <time>2021-08-08T14:29:51Z</time>
      </trkpt>
      <trkpt lat="44.21184" lon="2.14055">
        <ele>619.71</ele>
        <time>2021-08-08T14:29:59Z</time>
      </trkpt>
      <trkpt lat="44.21186" lon="2.14047">
        <ele>619.23</ele>
        <time>2021-08-08T14:30:03Z</time>
      </trkpt>
      <trkpt lat="44.21185" lon="2.14044">
        <ele>619.23</ele>
        <time>2021-08-08T14:30:05Z</time>
      </trkpt>
      <trkpt lat="44.21181" lon="2.14046">
        <ele>619.23</ele>
        <time>2021-08-08T14:30:09Z</time>
      </trkpt>
      <trkpt lat="44.21176" lon="2.1405">
        <ele>619.71</ele>
        <time>2021-08-08T14:30:23Z</time>
      </trkpt>
      <trkpt lat="44.21175" lon="2.14053">
        <ele>619.71</ele>
        <time>2021-08-08T14:30:44Z</time>
      </trkpt>
      <trkpt lat="44.21174" lon="2.1406">
        <ele>620.19</ele>
        <time>2021-08-08T14:30:57Z</time>
      </trkpt>
      <trkpt lat="44.21174" lon="2.14062">
        <ele>620.19</ele>
        <time>2021-08-08T14:31:14Z</time>
      </trkpt>
      <trkpt lat="44.21174" lon="2.14066">
        <ele>620.19</ele>
        <time>2021-08-08T14:31:39Z</time>
      </trkpt>
      <trkpt lat="44.21174" lon="2.14066">
        <ele>620.19</ele>
        <time>2021-08-08T14:31:55Z</time>
      </trkpt>
      <trkpt lat="44.21175" lon="2.14068">
        <ele>620.19</ele>
        <time>2021-08-08T14:32:22Z</time>
      </trkpt>
      <trkpt lat="44.21174" lon="2.14066">
        <ele>620.67</ele>
        <time>2021-08-08T14:32:41Z</time>
      </trkpt>
      <trkpt lat="44.21172" lon="2.14068">
        <ele>622.11</ele>
        <time>2021-08-08T14:33:03Z</time>
      </trkpt>
      <trkpt lat="44.21173" lon="2.14065">
        <ele>624.51</ele>
        <time>2021-08-08T14:33:17Z</time>
      </trkpt>
      <trkpt lat="44.21172" lon="2.14064">
        <ele>627.4</ele>
        <time>2021-08-08T14:33:30Z</time>
      </trkpt>
      <trkpt lat="44.2117" lon="2.14066">
        <ele>630.28</ele>
        <time>2021-08-08T14:33:49Z</time>
      </trkpt>
      <trkpt lat="44.21172" lon="2.14066">
        <ele>631.24</ele>
        <time>2021-08-08T14:34:12Z</time>
      </trkpt>
      <trkpt lat="44.21172" lon="2.14064">
        <ele>632.68</ele>
        <time>2021-08-08T14:34:35Z</time>
      </trkpt>
      <trkpt lat="44.21172" lon="2.14066">
        <ele>632.68</ele>
        <time>2021-08-08T14:34:50Z</time>
      </trkpt>
      <trkpt lat="44.21173" lon="2.14065">
        <ele>631.24</ele>
        <time>2021-08-08T14:35:14Z</time>
      </trkpt>
      <trkpt lat="44.21173" lon="2.14065">
        <ele>631.24</ele>
        <time>2021-08-08T14:35:36Z</time>
      </trkpt>
      <trkpt lat="44.21172" lon="2.14069">
        <ele>631.24</ele>
        <time>2021-08-08T14:35:55Z</time>
      </trkpt>
      <trkpt lat="44.21169" lon="2.14069">
        <ele>632.68</ele>
        <time>2021-08-08T14:36:20Z</time>
      </trkpt>
      <trkpt lat="44.2117" lon="2.14068">
        <ele>632.68</ele>
        <time>2021-08-08T14:36:48Z</time>
      </trkpt>
      <trkpt lat="44.21172" lon="2.14067">
        <ele>632.68</ele>
        <time>2021-08-08T14:37:09Z</time>
      </trkpt>
      <trkpt lat="44.21172" lon="2.14069">
        <ele>632.68</ele>
        <time>2021-08-08T14:37:39Z</time>
      </trkpt>
      <trkpt lat="44.21172" lon="2.1407">
        <ele>632.68</ele>
        <time>2021-08-08T14:38:10Z</time>
      </trkpt>
      <trkpt lat="44.21172" lon="2.1407">
        <ele>632.68</ele>
        <time>2021-08-08T14:38:46Z</time>
      </trkpt>
      <trkpt lat="44.21172" lon="2.14066">
        <ele>632.68</ele>
        <time>2021-08-08T14:39:14Z</time>
      </trkpt>
      <trkpt lat="44.21171" lon="2.14066">
        <ele>631.72</ele>
        <time>2021-08-08T14:39:32Z</time>
      </trkpt>
      <trkpt lat="44.21171" lon="2.14066">
        <ele>631.72</ele>
        <time>2021-08-08T14:39:33Z</time>
      </trkpt>
      <trkpt lat="44.21173" lon="2.14065">
        <ele>628.36</ele>
        <time>2021-08-08T14:39:46Z</time>
      </trkpt>
      <trkpt lat="44.21172" lon="2.14066">
        <ele>626.44</ele>
        <time>2021-08-08T14:40:05Z</time>
      </trkpt>
      <trkpt lat="44.21172" lon="2.14065">
        <ele>623.55</ele>
        <time>2021-08-08T14:40:20Z</time>
      </trkpt>
      <trkpt lat="44.21173" lon="2.14065">
        <ele>620.67</ele>
        <time>2021-08-08T14:40:34Z</time>
      </trkpt>
      <trkpt lat="44.21175" lon="2.14058">
        <ele>620.19</ele>
        <time>2021-08-08T14:40:47Z</time>
      </trkpt>
      <trkpt lat="44.21176" lon="2.14055">
        <ele>620.19</ele>
        <time>2021-08-08T14:41:00Z</time>
      </trkpt>
      <trkpt lat="44.21176" lon="2.14055">
        <ele>620.67</ele>
        <time>2021-08-08T14:41:25Z</time>
      </trkpt>
      <trkpt lat="44.2118" lon="2.14047">
        <ele>620.67</ele>
        <time>2021-08-08T14:41:37Z</time>
      </trkpt>
      <trkpt lat="44.21187" lon="2.14042">
        <ele>620.67</ele>
        <time>2021-08-08T14:41:45Z</time>
      </trkpt>
      <trkpt lat="44.21199" lon="2.1404">
        <ele>620.67</ele>
        <time>2021-08-08T14:42:04Z</time>
      </trkpt>
      <trkpt lat="44.21212" lon="2.14035">
        <ele>620.67</ele>
        <time>2021-08-08T14:42:20Z</time>
      </trkpt>
      <trkpt lat="44.2123" lon="2.14026">
        <ele>620.67</ele>
        <time>2021-08-08T14:42:35Z</time>
      </trkpt>
      <trkpt lat="44.21237" lon="2.14024">
        <ele>619.23</ele>
        <time>2021-08-08T14:42:41Z</time>
      </trkpt>
      <trkpt lat="44.21262" lon="2.14014">
        <ele>617.78</ele>
        <time>2021-08-08T14:43:01Z</time>
      </trkpt>
      <trkpt lat="44.21276" lon="2.14004">
        <ele>615.86</ele>
        <time>2021-08-08T14:43:14Z</time>
      </trkpt>
      <trkpt lat="44.21295" lon="2.13997">
        <ele>613.94</ele>
        <time>2021-08-08T14:43:30Z</time>
      </trkpt>
      <trkpt lat="44.21313" lon="2.13993">
        <ele>612.02</ele>
        <time>2021-08-08T14:43:46Z</time>
      </trkpt>
      <trkpt lat="44.21331" lon="2.13987">
        <ele>609.61</ele>
        <time>2021-08-08T14:44:02Z</time>
      </trkpt>
      <trkpt lat="44.21349" lon="2.13976">
        <ele>606.73</ele>
        <time>2021-08-08T14:44:20Z</time>
      </trkpt>
      <trkpt lat="44.21369" lon="2.13958">
        <ele>603.36</ele>
        <time>2021-08-08T14:44:39Z</time>
      </trkpt>
      <trkpt lat="44.21387" lon="2.13941">
        <ele>600.96</ele>
        <time>2021-08-08T14:44:56Z</time>
      </trkpt>
      <trkpt lat="44.21407" lon="2.13921">
        <ele>599.04</ele>
        <time>2021-08-08T14:45:16Z</time>
      </trkpt>
      <trkpt lat="44.21408" lon="2.1392">
        <ele>598.56</ele>
        <time>2021-08-08T14:45:17Z</time>
      </trkpt>
      <trkpt lat="44.2141" lon="2.13921">
        <ele>598.56</ele>
        <time>2021-08-08T14:45:19Z</time>
      </trkpt>
      <trkpt lat="44.21425" lon="2.13947">
        <ele>597.6</ele>
        <time>2021-08-08T14:45:39Z</time>
      </trkpt>
      <trkpt lat="44.21439" lon="2.13975">
        <ele>597.12</ele>
        <time>2021-08-08T14:45:57Z</time>
      </trkpt>
      <trkpt lat="44.21454" lon="2.14006">
        <ele>596.15</ele>
        <time>2021-08-08T14:46:18Z</time>
      </trkpt>
      <trkpt lat="44.21466" lon="2.14032">
        <ele>595.19</ele>
        <time>2021-08-08T14:46:36Z</time>
      </trkpt>
      <trkpt lat="44.2148" lon="2.14065">
        <ele>593.75</ele>
        <time>2021-08-08T14:46:57Z</time>
      </trkpt>
      <trkpt lat="44.21497" lon="2.14089">
        <ele>595.19</ele>
        <time>2021-08-08T14:47:17Z</time>
      </trkpt>
      <trkpt lat="44.2152" lon="2.14107">
        <ele>595.67</ele>
        <time>2021-08-08T14:47:38Z</time>
      </trkpt>
      <trkpt lat="44.21546" lon="2.1412">
        <ele>597.12</ele>
        <time>2021-08-08T14:47:59Z</time>
      </trkpt>
      <trkpt lat="44.21567" lon="2.14132">
        <ele>599.04</ele>
        <time>2021-08-08T14:48:18Z</time>
      </trkpt>
      <trkpt lat="44.21587" lon="2.14147">
        <ele>600.96</ele>
        <time>2021-08-08T14:48:37Z</time>
      </trkpt>
      <trkpt lat="44.21589" lon="2.14148">
        <ele>600.96</ele>
        <time>2021-08-08T14:48:39Z</time>
      </trkpt>
      <trkpt lat="44.21604" lon="2.14153">
        <ele>601.92</ele>
        <time>2021-08-08T14:48:53Z</time>
      </trkpt>
      <trkpt lat="44.21624" lon="2.14167">
        <ele>603.85</ele>
        <time>2021-08-08T14:49:10Z</time>
      </trkpt>
      <trkpt lat="44.21647" lon="2.1419">
        <ele>604.81</ele>
        <time>2021-08-08T14:49:32Z</time>
      </trkpt>
      <trkpt lat="44.21664" lon="2.14212">
        <ele>605.77</ele>
        <time>2021-08-08T14:49:50Z</time>
      </trkpt>
      <trkpt lat="44.21685" lon="2.14239">
        <ele>607.21</ele>
        <time>2021-08-08T14:50:11Z</time>
      </trkpt>
      <trkpt lat="44.21704" lon="2.14266">
        <ele>608.17</ele>
        <time>2021-08-08T14:50:32Z</time>
      </trkpt>
      <trkpt lat="44.21721" lon="2.14292">
        <ele>608.65</ele>
        <time>2021-08-08T14:50:50Z</time>
      </trkpt>
      <trkpt lat="44.2174" lon="2.1432">
        <ele>609.13</ele>
        <time>2021-08-08T14:51:11Z</time>
      </trkpt>
      <trkpt lat="44.21765" lon="2.14351">
        <ele>609.61</ele>
        <time>2021-08-08T14:51:35Z</time>
      </trkpt>
      <trkpt lat="44.21786" lon="2.14377">
        <ele>610.09</ele>
        <time>2021-08-08T14:51:56Z</time>
      </trkpt>
      <trkpt lat="44.21809" lon="2.14401">
        <ele>610.09</ele>
        <time>2021-08-08T14:52:19Z</time>
      </trkpt>
      <trkpt lat="44.21811" lon="2.14407">
        <ele>610.09</ele>
        <time>2021-08-08T14:52:30Z</time>
      </trkpt>
      <trkpt lat="44.2182" lon="2.14415">
        <ele>610.09</ele>
        <time>2021-08-08T14:52:45Z</time>
      </trkpt>
      <trkpt lat="44.21834" lon="2.14427">
        <ele>610.09</ele>
        <time>2021-08-08T14:53:04Z</time>
      </trkpt>
      <trkpt lat="44.2184" lon="2.14433">
        <ele>609.13</ele>
        <time>2021-08-08T14:53:19Z</time>
      </trkpt>
      <trkpt lat="44.21858" lon="2.14448">
        <ele>608.65</ele>
        <time>2021-08-08T14:53:38Z</time>
      </trkpt>
      <trkpt lat="44.21866" lon="2.14455">
        <ele>608.65</ele>
        <time>2021-08-08T14:53:51Z</time>
      </trkpt>
      <trkpt lat="44.21878" lon="2.14478">
        <ele>608.17</ele>
        <time>2021-08-08T14:54:10Z</time>
      </trkpt>
      <trkpt lat="44.21884" lon="2.14504">
        <ele>608.17</ele>
        <time>2021-08-08T14:54:28Z</time>
      </trkpt>
      <trkpt lat="44.21891" lon="2.14537">
        <ele>609.61</ele>
        <time>2021-08-08T14:54:48Z</time>
      </trkpt>
      <trkpt lat="44.21899" lon="2.14568">
        <ele>610.09</ele>
        <time>2021-08-08T14:55:07Z</time>
      </trkpt>
      <trkpt lat="44.21908" lon="2.14602">
        <ele>610.09</ele>
        <time>2021-08-08T14:55:28Z</time>
      </trkpt>
      <trkpt lat="44.21914" lon="2.14636">
        <ele>611.06</ele>
        <time>2021-08-08T14:55:48Z</time>
      </trkpt>
      <trkpt lat="44.21917" lon="2.14666">
        <ele>611.06</ele>
        <time>2021-08-08T14:56:06Z</time>
      </trkpt>
      <trkpt lat="44.21918" lon="2.14702">
        <ele>611.06</ele>
        <time>2021-08-08T14:56:27Z</time>
      </trkpt>
      <trkpt lat="44.21917" lon="2.14712">
        <ele>609.61</ele>
        <time>2021-08-08T14:56:33Z</time>
      </trkpt>
      <trkpt lat="44.21914" lon="2.14745">
        <ele>608.17</ele>
        <time>2021-08-08T14:56:51Z</time>
      </trkpt>
      <trkpt lat="44.21915" lon="2.1475">
        <ele>607.21</ele>
        <time>2021-08-08T14:56:54Z</time>
      </trkpt>
      <trkpt lat="44.21911" lon="2.14784">
        <ele>605.29</ele>
        <time>2021-08-08T14:57:15Z</time>
      </trkpt>
      <trkpt lat="44.21901" lon="2.14813">
        <ele>602.4</ele>
        <time>2021-08-08T14:57:35Z</time>
      </trkpt>
      <trkpt lat="44.21893" lon="2.14838">
        <ele>599.52</ele>
        <time>2021-08-08T14:57:53Z</time>
      </trkpt>
      <trkpt lat="44.21885" lon="2.14865">
        <ele>597.12</ele>
        <time>2021-08-08T14:58:12Z</time>
      </trkpt>
      <trkpt lat="44.21871" lon="2.14889">
        <ele>594.71</ele>
        <time>2021-08-08T14:58:31Z</time>
      </trkpt>
      <trkpt lat="44.21857" lon="2.14912">
        <ele>593.75</ele>
        <time>2021-08-08T14:58:52Z</time>
      </trkpt>
      <trkpt lat="44.21841" lon="2.14931">
        <ele>592.79</ele>
        <time>2021-08-08T14:59:13Z</time>
      </trkpt>
      <trkpt lat="44.21826" lon="2.1495">
        <ele>591.83</ele>
        <time>2021-08-08T14:59:32Z</time>
      </trkpt>
      <trkpt lat="44.21807" lon="2.1496">
        <ele>590.87</ele>
        <time>2021-08-08T14:59:51Z</time>
      </trkpt>
      <trkpt lat="44.21785" lon="2.14969">
        <ele>590.39</ele>
        <time>2021-08-08T15:00:11Z</time>
      </trkpt>
      <trkpt lat="44.21765" lon="2.14982">
        <ele>587.98</ele>
        <time>2021-08-08T15:00:33Z</time>
      </trkpt>
      <trkpt lat="44.21748" lon="2.14991">
        <ele>585.58</ele>
        <time>2021-08-08T15:00:51Z</time>
      </trkpt>
      <trkpt lat="44.21727" lon="2.15001">
        <ele>583.66</ele>
        <time>2021-08-08T15:01:11Z</time>
      </trkpt>
      <trkpt lat="44.21705" lon="2.1501">
        <ele>581.25</ele>
        <time>2021-08-08T15:01:30Z</time>
      </trkpt>
      <trkpt lat="44.2169" lon="2.15025">
        <ele>580.29</ele>
        <time>2021-08-08T15:01:47Z</time>
      </trkpt>
      <trkpt lat="44.21682" lon="2.15032">
        <ele>578.85</ele>
        <time>2021-08-08T15:02:04Z</time>
      </trkpt>
      <trkpt lat="44.2167" lon="2.15022">
        <ele>578.37</ele>
        <time>2021-08-08T15:02:20Z</time>
      </trkpt>
      <trkpt lat="44.21653" lon="2.15007">
        <ele>575.97</ele>
        <time>2021-08-08T15:02:39Z</time>
      </trkpt>
      <trkpt lat="44.21649" lon="2.14998">
        <ele>574.53</ele>
        <time>2021-08-08T15:02:48Z</time>
      </trkpt>
      <trkpt lat="44.21639" lon="2.14973">
        <ele>572.6</ele>
        <time>2021-08-08T15:03:07Z</time>
      </trkpt>
      <trkpt lat="44.21628" lon="2.14959">
        <ele>570.68</ele>
        <time>2021-08-08T15:03:22Z</time>
      </trkpt>
      <trkpt lat="44.21606" lon="2.14958">
        <ele>568.28</ele>
        <time>2021-08-08T15:03:43Z</time>
      </trkpt>
      <trkpt lat="44.21593" lon="2.14961">
        <ele>566.83</ele>
        <time>2021-08-08T15:03:57Z</time>
      </trkpt>
      <trkpt lat="44.21584" lon="2.14963">
        <ele>565.87</ele>
        <time>2021-08-08T15:04:09Z</time>
      </trkpt>
      <trkpt lat="44.21562" lon="2.1496">
        <ele>562.99</ele>
        <time>2021-08-08T15:04:29Z</time>
      </trkpt>
      <trkpt lat="44.21545" lon="2.14973">
        <ele>561.07</ele>
        <time>2021-08-08T15:04:47Z</time>
      </trkpt>
      <trkpt lat="44.21532" lon="2.15001">
        <ele>559.62</ele>
        <time>2021-08-08T15:05:07Z</time>
      </trkpt>
      <trkpt lat="44.21522" lon="2.15033">
        <ele>557.7</ele>
        <time>2021-08-08T15:05:28Z</time>
      </trkpt>
      <trkpt lat="44.21504" lon="2.15052">
        <ele>556.26</ele>
        <time>2021-08-08T15:05:49Z</time>
      </trkpt>
      <trkpt lat="44.2148" lon="2.15065">
        <ele>554.82</ele>
        <time>2021-08-08T15:06:11Z</time>
      </trkpt>
      <trkpt lat="44.21467" lon="2.15071">
        <ele>554.34</ele>
        <time>2021-08-08T15:06:30Z</time>
      </trkpt>
      <trkpt lat="44.21452" lon="2.15075">
        <ele>553.86</ele>
        <time>2021-08-08T15:06:47Z</time>
      </trkpt>
      <trkpt lat="44.21425" lon="2.15081">
        <ele>552.41</ele>
        <time>2021-08-08T15:07:09Z</time>
      </trkpt>
      <trkpt lat="44.21398" lon="2.151">
        <ele>550.01</ele>
        <time>2021-08-08T15:07:35Z</time>
      </trkpt>
      <trkpt lat="44.21384" lon="2.15129">
        <ele>548.09</ele>
        <time>2021-08-08T15:07:57Z</time>
      </trkpt>
      <trkpt lat="44.21375" lon="2.15154">
        <ele>547.13</ele>
        <time>2021-08-08T15:08:15Z</time>
      </trkpt>
      <trkpt lat="44.21373" lon="2.15168">
        <ele>546.65</ele>
        <time>2021-08-08T15:08:24Z</time>
      </trkpt>
      <trkpt lat="44.21376" lon="2.15193">
        <ele>546.17</ele>
        <time>2021-08-08T15:08:40Z</time>
      </trkpt>
      <trkpt lat="44.21364" lon="2.15219">
        <ele>543.76</ele>
        <time>2021-08-08T15:09:02Z</time>
      </trkpt>
      <trkpt lat="44.21359" lon="2.15226">
        <ele>543.28</ele>
        <time>2021-08-08T15:09:10Z</time>
      </trkpt>
      <trkpt lat="44.21351" lon="2.15227">
        <ele>542.32</ele>
        <time>2021-08-08T15:09:19Z</time>
      </trkpt>
      <trkpt lat="44.21338" lon="2.15223">
        <ele>541.36</ele>
        <time>2021-08-08T15:09:32Z</time>
      </trkpt>
      <trkpt lat="44.21336" lon="2.15248">
        <ele>538.48</ele>
        <time>2021-08-08T15:09:50Z</time>
      </trkpt>
      <trkpt lat="44.21328" lon="2.15254">
        <ele>537.51</ele>
        <time>2021-08-08T15:10:03Z</time>
      </trkpt>
      <trkpt lat="44.21311" lon="2.15263">
        <ele>534.63</ele>
        <time>2021-08-08T15:10:21Z</time>
      </trkpt>
      <trkpt lat="44.21293" lon="2.15272">
        <ele>532.71</ele>
        <time>2021-08-08T15:10:38Z</time>
      </trkpt>
      <trkpt lat="44.21288" lon="2.15274">
        <ele>532.23</ele>
        <time>2021-08-08T15:10:43Z</time>
      </trkpt>
      <trkpt lat="44.21272" lon="2.15281">
        <ele>529.82</ele>
        <time>2021-08-08T15:11:01Z</time>
      </trkpt>
      <trkpt lat="44.21254" lon="2.15286">
        <ele>528.86</ele>
        <time>2021-08-08T15:11:17Z</time>
      </trkpt>
      <trkpt lat="44.21232" lon="2.1529">
        <ele>527.42</ele>
        <time>2021-08-08T15:11:35Z</time>
      </trkpt>
      <trkpt lat="44.21212" lon="2.15297">
        <ele>525.02</ele>
        <time>2021-08-08T15:11:54Z</time>
      </trkpt>
      <trkpt lat="44.21192" lon="2.15305">
        <ele>524.06</ele>
        <time>2021-08-08T15:12:11Z</time>
      </trkpt>
      <trkpt lat="44.2117" lon="2.15316">
        <ele>522.61</ele>
        <time>2021-08-08T15:12:30Z</time>
      </trkpt>
      <trkpt lat="44.21145" lon="2.15331">
        <ele>521.65</ele>
        <time>2021-08-08T15:12:53Z</time>
      </trkpt>
      <trkpt lat="44.2114" lon="2.15333">
        <ele>521.17</ele>
        <time>2021-08-08T15:13:06Z</time>
      </trkpt>
      <trkpt lat="44.21132" lon="2.15338">
        <ele>520.69</ele>
        <time>2021-08-08T15:13:20Z</time>
      </trkpt>
      <trkpt lat="44.21113" lon="2.15351">
        <ele>519.25</ele>
        <time>2021-08-08T15:13:39Z</time>
      </trkpt>
      <trkpt lat="44.21094" lon="2.1536">
        <ele>517.33</ele>
        <time>2021-08-08T15:13:57Z</time>
      </trkpt>
      <trkpt lat="44.21084" lon="2.15365">
        <ele>516.37</ele>
        <time>2021-08-08T15:14:07Z</time>
      </trkpt>
      <trkpt lat="44.21061" lon="2.15374">
        <ele>515.4</ele>
        <time>2021-08-08T15:14:26Z</time>
      </trkpt>
      <trkpt lat="44.21037" lon="2.15387">
        <ele>514.44</ele>
        <time>2021-08-08T15:14:48Z</time>
      </trkpt>
      <trkpt lat="44.21013" lon="2.15397">
        <ele>513.96</ele>
        <time>2021-08-08T15:15:09Z</time>
      </trkpt>
      <trkpt lat="44.2099" lon="2.15407">
        <ele>513</ele>
        <time>2021-08-08T15:15:30Z</time>
      </trkpt>
      <trkpt lat="44.20968" lon="2.15405">
        <ele>512.04</ele>
        <time>2021-08-08T15:15:49Z</time>
      </trkpt>
      <trkpt lat="44.20942" lon="2.15401">
        <ele>511.08</ele>
        <time>2021-08-08T15:16:12Z</time>
      </trkpt>
      <trkpt lat="44.20923" lon="2.15402">
        <ele>509.64</ele>
        <time>2021-08-08T15:16:33Z</time>
      </trkpt>
      <trkpt lat="44.20905" lon="2.15403">
        <ele>508.67</ele>
        <time>2021-08-08T15:16:51Z</time>
      </trkpt>
      <trkpt lat="44.20892" lon="2.15403">
        <ele>508.19</ele>
        <time>2021-08-08T15:17:04Z</time>
      </trkpt>
      <trkpt lat="44.20868" lon="2.15407">
        <ele>506.75</ele>
        <time>2021-08-08T15:17:25Z</time>
      </trkpt>
      <trkpt lat="44.20845" lon="2.15414">
        <ele>505.31</ele>
        <time>2021-08-08T15:17:45Z</time>
      </trkpt>
      <trkpt lat="44.20822" lon="2.15418">
        <ele>503.87</ele>
        <time>2021-08-08T15:18:05Z</time>
      </trkpt>
      <trkpt lat="44.20801" lon="2.15426">
        <ele>502.91</ele>
        <time>2021-08-08T15:18:25Z</time>
      </trkpt>
      <trkpt lat="44.2079" lon="2.15433">
        <ele>501.95</ele>
        <time>2021-08-08T15:18:39Z</time>
      </trkpt>
      <trkpt lat="44.20788" lon="2.15434">
        <ele>501.46</ele>
        <time>2021-08-08T15:18:52Z</time>
      </trkpt>
      <trkpt lat="44.20789" lon="2.15434">
        <ele>501.46</ele>
        <time>2021-08-08T15:19:13Z</time>
      </trkpt>
      <trkpt lat="44.20779" lon="2.15439">
        <ele>500.98</ele>
        <time>2021-08-08T15:19:32Z</time>
      </trkpt>
      <trkpt lat="44.20764" lon="2.15446">
        <ele>499.06</ele>
        <time>2021-08-08T15:19:50Z</time>
      </trkpt>
      <trkpt lat="44.20749" lon="2.1545">
        <ele>496.66</ele>
        <time>2021-08-08T15:20:07Z</time>
      </trkpt>
      <trkpt lat="44.20734" lon="2.15454">
        <ele>494.26</ele>
        <time>2021-08-08T15:20:24Z</time>
      </trkpt>
      <trkpt lat="44.20721" lon="2.15457">
        <ele>493.77</ele>
        <time>2021-08-08T15:20:38Z</time>
      </trkpt>
      <trkpt lat="44.20702" lon="2.15461">
        <ele>492.33</ele>
        <time>2021-08-08T15:20:55Z</time>
      </trkpt>
      <trkpt lat="44.20682" lon="2.15463">
        <ele>490.41</ele>
        <time>2021-08-08T15:21:13Z</time>
      </trkpt>
      <trkpt lat="44.20666" lon="2.15466">
        <ele>488.01</ele>
        <time>2021-08-08T15:21:29Z</time>
      </trkpt>
      <trkpt lat="44.20648" lon="2.15469">
        <ele>486.08</ele>
        <time>2021-08-08T15:21:46Z</time>
      </trkpt>
      <trkpt lat="44.2063" lon="2.15472">
        <ele>484.16</ele>
        <time>2021-08-08T15:22:04Z</time>
      </trkpt>
      <trkpt lat="44.20614" lon="2.15474">
        <ele>481.76</ele>
        <time>2021-08-08T15:22:21Z</time>
      </trkpt>
      <trkpt lat="44.20596" lon="2.15476">
        <ele>479.84</ele>
        <time>2021-08-08T15:22:37Z</time>
      </trkpt>
      <trkpt lat="44.2058" lon="2.15479">
        <ele>477.43</ele>
        <time>2021-08-08T15:22:54Z</time>
      </trkpt>
      <trkpt lat="44.20562" lon="2.15482">
        <ele>475.03</ele>
        <time>2021-08-08T15:23:15Z</time>
      </trkpt>
      <trkpt lat="44.20551" lon="2.15487">
        <ele>474.07</ele>
        <time>2021-08-08T15:23:31Z</time>
      </trkpt>
      <trkpt lat="44.20554" lon="2.1549">
        <ele>473.59</ele>
        <time>2021-08-08T15:23:45Z</time>
      </trkpt>
      <trkpt lat="44.20552" lon="2.15494">
        <ele>473.11</ele>
        <time>2021-08-08T15:24:02Z</time>
      </trkpt>
      <trkpt lat="44.20559" lon="2.15495">
        <ele>472.63</ele>
        <time>2021-08-08T15:24:23Z</time>
      </trkpt>
      <trkpt lat="44.20567" lon="2.15499">
        <ele>471.18</ele>
        <time>2021-08-08T15:24:41Z</time>
      </trkpt>
      <trkpt lat="44.20582" lon="2.15501">
        <ele>468.3</ele>
        <time>2021-08-08T15:24:58Z</time>
      </trkpt>
      <trkpt lat="44.20595" lon="2.15503">
        <ele>466.38</ele>
        <time>2021-08-08T15:25:13Z</time>
      </trkpt>
      <trkpt lat="44.20607" lon="2.15512">
        <ele>463.49</ele>
        <time>2021-08-08T15:25:32Z</time>
      </trkpt>
      <trkpt lat="44.2062" lon="2.15522">
        <ele>460.61</ele>
        <time>2021-08-08T15:25:52Z</time>
      </trkpt>
      <trkpt lat="44.20636" lon="2.15537">
        <ele>458.21</ele>
        <time>2021-08-08T15:26:13Z</time>
      </trkpt>
      <trkpt lat="44.20647" lon="2.15549">
        <ele>456.28</ele>
        <time>2021-08-08T15:26:29Z</time>
      </trkpt>
      <trkpt lat="44.2066" lon="2.15565">
        <ele>454.36</ele>
        <time>2021-08-08T15:26:47Z</time>
      </trkpt>
      <trkpt lat="44.2067" lon="2.15576">
        <ele>452.44</ele>
        <time>2021-08-08T15:27:02Z</time>
      </trkpt>
      <trkpt lat="44.20681" lon="2.15593">
        <ele>449.55</ele>
        <time>2021-08-08T15:27:20Z</time>
      </trkpt>
      <trkpt lat="44.20686" lon="2.15608">
        <ele>447.63</ele>
        <time>2021-08-08T15:27:36Z</time>
      </trkpt>
      <trkpt lat="44.20672" lon="2.15607">
        <ele>445.23</ele>
        <time>2021-08-08T15:27:53Z</time>
      </trkpt>
      <trkpt lat="44.20654" lon="2.15607">
        <ele>441.86</ele>
        <time>2021-08-08T15:28:12Z</time>
      </trkpt>
      <trkpt lat="44.20632" lon="2.15606">
        <ele>439.94</ele>
        <time>2021-08-08T15:28:32Z</time>
      </trkpt>
      <trkpt lat="44.20612" lon="2.15602">
        <ele>437.06</ele>
        <time>2021-08-08T15:28:50Z</time>
      </trkpt>
      <trkpt lat="44.20593" lon="2.15598">
        <ele>435.13</ele>
        <time>2021-08-08T15:29:07Z</time>
      </trkpt>
      <trkpt lat="44.20574" lon="2.15592">
        <ele>433.69</ele>
        <time>2021-08-08T15:29:24Z</time>
      </trkpt>
      <trkpt lat="44.2056" lon="2.15589">
        <ele>431.77</ele>
        <time>2021-08-08T15:29:39Z</time>
      </trkpt>
      <trkpt lat="44.20541" lon="2.15586">
        <ele>429.85</ele>
        <time>2021-08-08T15:29:56Z</time>
      </trkpt>
      <trkpt lat="44.20524" lon="2.15582">
        <ele>427.92</ele>
        <time>2021-08-08T15:30:13Z</time>
      </trkpt>
      <trkpt lat="44.20505" lon="2.1558">
        <ele>426</ele>
        <time>2021-08-08T15:30:29Z</time>
      </trkpt>
      <trkpt lat="44.20489" lon="2.15577">
        <ele>425.04</ele>
        <time>2021-08-08T15:30:44Z</time>
      </trkpt>
      <trkpt lat="44.20472" lon="2.15575">
        <ele>424.56</ele>
        <time>2021-08-08T15:31:00Z</time>
      </trkpt>
      <trkpt lat="44.20455" lon="2.15568">
        <ele>423.12</ele>
        <time>2021-08-08T15:31:17Z</time>
      </trkpt>
      <trkpt lat="44.20437" lon="2.1556">
        <ele>422.64</ele>
        <time>2021-08-08T15:31:34Z</time>
      </trkpt>
      <trkpt lat="44.20419" lon="2.15554">
        <ele>421.68</ele>
        <time>2021-08-08T15:31:51Z</time>
      </trkpt>
      <trkpt lat="44.20405" lon="2.1555">
        <ele>419.75</ele>
        <time>2021-08-08T15:32:08Z</time>
      </trkpt>
      <trkpt lat="44.20402" lon="2.15548">
        <ele>419.75</ele>
        <time>2021-08-08T15:32:37Z</time>
      </trkpt>
      <trkpt lat="44.20392" lon="2.15547">
        <ele>416.87</ele>
        <time>2021-08-08T15:32:54Z</time>
      </trkpt>
      <trkpt lat="44.20378" lon="2.15536">
        <ele>413.5</ele>
        <time>2021-08-08T15:33:11Z</time>
      </trkpt>
      <trkpt lat="44.20362" lon="2.15531">
        <ele>410.62</ele>
        <time>2021-08-08T15:33:30Z</time>
      </trkpt>
      <trkpt lat="44.20345" lon="2.15534">
        <ele>409.18</ele>
        <time>2021-08-08T15:33:48Z</time>
      </trkpt>
      <trkpt lat="44.20351" lon="2.15544">
        <ele>406.29</ele>
        <time>2021-08-08T15:34:04Z</time>
      </trkpt>
      <trkpt lat="44.20362" lon="2.15558">
        <ele>403.89</ele>
        <time>2021-08-08T15:34:20Z</time>
      </trkpt>
      <trkpt lat="44.20374" lon="2.15574">
        <ele>401.49</ele>
        <time>2021-08-08T15:34:37Z</time>
      </trkpt>
      <trkpt lat="44.20385" lon="2.15589">
        <ele>398.6</ele>
        <time>2021-08-08T15:34:54Z</time>
      </trkpt>
      <trkpt lat="44.20394" lon="2.156">
        <ele>395.24</ele>
        <time>2021-08-08T15:35:09Z</time>
      </trkpt>
      <trkpt lat="44.20395" lon="2.15601">
        <ele>395.24</ele>
        <time>2021-08-08T15:35:10Z</time>
      </trkpt>
      <trkpt lat="44.20404" lon="2.15615">
        <ele>393.8</ele>
        <time>2021-08-08T15:35:24Z</time>
      </trkpt>
      <trkpt lat="44.20417" lon="2.15631">
        <ele>391.39</ele>
        <time>2021-08-08T15:35:44Z</time>
      </trkpt>
      <trkpt lat="44.20427" lon="2.15647">
        <ele>388.51</ele>
        <time>2021-08-08T15:36:02Z</time>
      </trkpt>
      <trkpt lat="44.20437" lon="2.15661">
        <ele>386.11</ele>
        <time>2021-08-08T15:36:18Z</time>
      </trkpt>
      <trkpt lat="44.20444" lon="2.15678">
        <ele>384.18</ele>
        <time>2021-08-08T15:36:34Z</time>
      </trkpt>
      <trkpt lat="44.20449" lon="2.15693">
        <ele>382.74</ele>
        <time>2021-08-08T15:36:50Z</time>
      </trkpt>
      <trkpt lat="44.20458" lon="2.15704">
        <ele>380.82</ele>
        <time>2021-08-08T15:37:06Z</time>
      </trkpt>
      <trkpt lat="44.20473" lon="2.15717">
        <ele>377.94</ele>
        <time>2021-08-08T15:37:25Z</time>
      </trkpt>
      <trkpt lat="44.20488" lon="2.15728">
        <ele>375.53</ele>
        <time>2021-08-08T15:37:43Z</time>
      </trkpt>
      <trkpt lat="44.20501" lon="2.15737">
        <ele>374.57</ele>
        <time>2021-08-08T15:38:00Z</time>
      </trkpt>
      <trkpt lat="44.20516" lon="2.15743">
        <ele>373.61</ele>
        <time>2021-08-08T15:38:17Z</time>
      </trkpt>
      <trkpt lat="44.20539" lon="2.15754">
        <ele>371.69</ele>
        <time>2021-08-08T15:38:34Z</time>
      </trkpt>
      <trkpt lat="44.20554" lon="2.15762">
        <ele>370.73</ele>
        <time>2021-08-08T15:38:48Z</time>
      </trkpt>
      <trkpt lat="44.20568" lon="2.15766">
        <ele>369.28</ele>
        <time>2021-08-08T15:39:05Z</time>
      </trkpt>
      <trkpt lat="44.20585" lon="2.15773">
        <ele>367.36</ele>
        <time>2021-08-08T15:39:22Z</time>
      </trkpt>
      <trkpt lat="44.206" lon="2.15784">
        <ele>364.48</ele>
        <time>2021-08-08T15:39:39Z</time>
      </trkpt>
      <trkpt lat="44.20615" lon="2.15798">
        <ele>362.55</ele>
        <time>2021-08-08T15:39:55Z</time>
      </trkpt>
      <trkpt lat="44.20627" lon="2.15809">
        <ele>360.15</ele>
        <time>2021-08-08T15:40:12Z</time>
      </trkpt>
      <trkpt lat="44.20617" lon="2.1581">
        <ele>358.23</ele>
        <time>2021-08-08T15:40:27Z</time>
      </trkpt>
      <trkpt lat="44.20605" lon="2.15804">
        <ele>355.83</ele>
        <time>2021-08-08T15:40:46Z</time>
      </trkpt>
      <trkpt lat="44.20587" lon="2.15799">
        <ele>353.9</ele>
        <time>2021-08-08T15:41:04Z</time>
      </trkpt>
      <trkpt lat="44.20574" lon="2.15799">
        <ele>351.02</ele>
        <time>2021-08-08T15:41:22Z</time>
      </trkpt>
      <trkpt lat="44.2056" lon="2.158">
        <ele>348.13</ele>
        <time>2021-08-08T15:41:40Z</time>
      </trkpt>
      <trkpt lat="44.20545" lon="2.15807">
        <ele>345.25</ele>
        <time>2021-08-08T15:41:58Z</time>
      </trkpt>
      <trkpt lat="44.20531" lon="2.15814">
        <ele>342.37</ele>
        <time>2021-08-08T15:42:16Z</time>
      </trkpt>
      <trkpt lat="44.20519" lon="2.15819">
        <ele>339.96</ele>
        <time>2021-08-08T15:42:35Z</time>
      </trkpt>
      <trkpt lat="44.20513" lon="2.15822">
        <ele>337.56</ele>
        <time>2021-08-08T15:42:56Z</time>
      </trkpt>
      <trkpt lat="44.20501" lon="2.15823">
        <ele>334.2</ele>
        <time>2021-08-08T15:43:14Z</time>
      </trkpt>
      <trkpt lat="44.20486" lon="2.15826">
        <ele>332.27</ele>
        <time>2021-08-08T15:43:30Z</time>
      </trkpt>
      <trkpt lat="44.20476" lon="2.15824">
        <ele>328.91</ele>
        <time>2021-08-08T15:43:47Z</time>
      </trkpt>
      <trkpt lat="44.20455" lon="2.15821">
        <ele>327.95</ele>
        <time>2021-08-08T15:44:06Z</time>
      </trkpt>
      <trkpt lat="44.2044" lon="2.15821">
        <ele>325.54</ele>
        <time>2021-08-08T15:44:24Z</time>
      </trkpt>
      <trkpt lat="44.20424" lon="2.15821">
        <ele>322.18</ele>
        <time>2021-08-08T15:44:41Z</time>
      </trkpt>
      <trkpt lat="44.20406" lon="2.15821">
        <ele>320.74</ele>
        <time>2021-08-08T15:44:58Z</time>
      </trkpt>
      <trkpt lat="44.20397" lon="2.15815">
        <ele>317.85</ele>
        <time>2021-08-08T15:45:14Z</time>
      </trkpt>
      <trkpt lat="44.20393" lon="2.15818">
        <ele>315.93</ele>
        <time>2021-08-08T15:45:29Z</time>
      </trkpt>
      <trkpt lat="44.20392" lon="2.15831">
        <ele>313.53</ele>
        <time>2021-08-08T15:45:46Z</time>
      </trkpt>
      <trkpt lat="44.20395" lon="2.15845">
        <ele>310.16</ele>
        <time>2021-08-08T15:46:00Z</time>
      </trkpt>
      <trkpt lat="44.20401" lon="2.15859">
        <ele>308.24</ele>
        <time>2021-08-08T15:46:17Z</time>
      </trkpt>
      <trkpt lat="44.20411" lon="2.15866">
        <ele>305.84</ele>
        <time>2021-08-08T15:46:32Z</time>
      </trkpt>
      <trkpt lat="44.20424" lon="2.15869">
        <ele>303.91</ele>
        <time>2021-08-08T15:46:49Z</time>
      </trkpt>
      <trkpt lat="44.20437" lon="2.15881">
        <ele>301.03</ele>
        <time>2021-08-08T15:47:08Z</time>
      </trkpt>
      <trkpt lat="44.2044" lon="2.15886">
        <ele>299.11</ele>
        <time>2021-08-08T15:47:26Z</time>
      </trkpt>
      <trkpt lat="44.20427" lon="2.15892">
        <ele>295.26</ele>
        <time>2021-08-08T15:47:47Z</time>
      </trkpt>
      <trkpt lat="44.2041" lon="2.15906">
        <ele>292.86</ele>
        <time>2021-08-08T15:48:06Z</time>
      </trkpt>
      <trkpt lat="44.20396" lon="2.15909">
        <ele>290.94</ele>
        <time>2021-08-08T15:48:23Z</time>
      </trkpt>
      <trkpt lat="44.20383" lon="2.15919">
        <ele>289.97</ele>
        <time>2021-08-08T15:48:42Z</time>
      </trkpt>
      <trkpt lat="44.2037" lon="2.15929">
        <ele>288.05</ele>
        <time>2021-08-08T15:49:01Z</time>
      </trkpt>
      <trkpt lat="44.20362" lon="2.15936">
        <ele>285.17</ele>
        <time>2021-08-08T15:49:21Z</time>
      </trkpt>
      <trkpt lat="44.20352" lon="2.15941">
        <ele>283.25</ele>
        <time>2021-08-08T15:49:40Z</time>
      </trkpt>
      <trkpt lat="44.20344" lon="2.15939">
        <ele>282.28</ele>
        <time>2021-08-08T15:49:56Z</time>
      </trkpt>
      <trkpt lat="44.20337" lon="2.15936">
        <ele>278.92</ele>
        <time>2021-08-08T15:50:13Z</time>
      </trkpt>
      <trkpt lat="44.20329" lon="2.15932">
        <ele>277</ele>
        <time>2021-08-08T15:50:28Z</time>
      </trkpt>
      <trkpt lat="44.20319" lon="2.15929">
        <ele>275.07</ele>
        <time>2021-08-08T15:50:43Z</time>
      </trkpt>
      <trkpt lat="44.20316" lon="2.15916">
        <ele>275.07</ele>
        <time>2021-08-08T15:50:57Z</time>
      </trkpt>
      <trkpt lat="44.20316" lon="2.15916">
        <ele>274.59</ele>
        <time>2021-08-08T15:51:14Z</time>
      </trkpt>
      <trkpt lat="44.20312" lon="2.15911">
        <ele>274.59</ele>
        <time>2021-08-08T15:51:31Z</time>
      </trkpt>
      <trkpt lat="44.20307" lon="2.15907">
        <ele>274.59</ele>
        <time>2021-08-08T15:51:56Z</time>
      </trkpt>
      <trkpt lat="44.20306" lon="2.15908">
        <ele>274.59</ele>
        <time>2021-08-08T15:52:16Z</time>
      </trkpt>
      <trkpt lat="44.20306" lon="2.15908">
        <ele>273.63</ele>
        <time>2021-08-08T15:52:42Z</time>
      </trkpt>
      <trkpt lat="44.2031" lon="2.15912">
        <ele>275.07</ele>
        <time>2021-08-08T15:52:50Z</time>
      </trkpt>
      <trkpt lat="44.20309" lon="2.15913">
        <ele>275.07</ele>
        <time>2021-08-08T15:53:18Z</time>
      </trkpt>
      <trkpt lat="44.20306" lon="2.15909">
        <ele>275.07</ele>
        <time>2021-08-08T15:53:51Z</time>
      </trkpt>
      <trkpt lat="44.203" lon="2.15905">
        <ele>273.63</ele>
        <time>2021-08-08T15:54:14Z</time>
      </trkpt>
      <trkpt lat="44.20295" lon="2.15905">
        <ele>273.15</ele>
        <time>2021-08-08T15:54:27Z</time>
      </trkpt>
      <trkpt lat="44.20297" lon="2.15904">
        <ele>273.15</ele>
        <time>2021-08-08T15:54:57Z</time>
      </trkpt>
      <trkpt lat="44.20295" lon="2.15901">
        <ele>273.15</ele>
        <time>2021-08-08T15:55:13Z</time>
      </trkpt>
      <trkpt lat="44.20293" lon="2.15896">
        <ele>272.67</ele>
        <time>2021-08-08T15:55:18Z</time>
      </trkpt>
      <trkpt lat="44.2029" lon="2.15893">
        <ele>272.19</ele>
        <time>2021-08-08T15:55:22Z</time>
      </trkpt>
      <trkpt lat="44.20275" lon="2.15881">
        <ele>271.23</ele>
        <time>2021-08-08T15:55:40Z</time>
      </trkpt>
      <trkpt lat="44.20263" lon="2.1587">
        <ele>271.23</ele>
        <time>2021-08-08T15:55:57Z</time>
      </trkpt>
      <trkpt lat="44.20259" lon="2.15865">
        <ele>272.19</ele>
        <time>2021-08-08T15:56:04Z</time>
      </trkpt>
      <trkpt lat="44.20251" lon="2.1585">
        <ele>273.63</ele>
        <time>2021-08-08T15:56:18Z</time>
      </trkpt>
      <trkpt lat="44.20238" lon="2.15832">
        <ele>275.07</ele>
        <time>2021-08-08T15:56:35Z</time>
      </trkpt>
      <trkpt lat="44.2022" lon="2.15828">
        <ele>277.48</ele>
        <time>2021-08-08T15:56:52Z</time>
      </trkpt>
      <trkpt lat="44.20202" lon="2.15835">
        <ele>278.92</ele>
        <time>2021-08-08T15:57:09Z</time>
      </trkpt>
      <trkpt lat="44.20182" lon="2.15827">
        <ele>278.92</ele>
        <time>2021-08-08T15:57:27Z</time>
      </trkpt>
      <trkpt lat="44.2017" lon="2.15821">
        <ele>277.48</ele>
        <time>2021-08-08T15:57:44Z</time>
      </trkpt>
      <trkpt lat="44.20159" lon="2.15827">
        <ele>274.59</ele>
        <time>2021-08-08T15:58:00Z</time>
      </trkpt>
      <trkpt lat="44.20154" lon="2.15831">
        <ele>273.15</ele>
        <time>2021-08-08T15:58:07Z</time>
      </trkpt>
      <trkpt lat="44.2014" lon="2.1584">
        <ele>271.23</ele>
        <time>2021-08-08T15:58:22Z</time>
      </trkpt>
      <trkpt lat="44.20114" lon="2.15854">
        <ele>268.83</ele>
        <time>2021-08-08T15:58:41Z</time>
      </trkpt>
      <trkpt lat="44.2009" lon="2.15875">
        <ele>266.9</ele>
        <time>2021-08-08T15:58:59Z</time>
      </trkpt>
      <trkpt lat="44.20066" lon="2.1589">
        <ele>264.98</ele>
        <time>2021-08-08T15:59:18Z</time>
      </trkpt>
      <trkpt lat="44.20056" lon="2.15883">
        <ele>264.02</ele>
        <time>2021-08-08T15:59:32Z</time>
      </trkpt>
      <trkpt lat="44.20049" lon="2.15865">
        <ele>261.62</ele>
        <time>2021-08-08T15:59:48Z</time>
      </trkpt>
      <trkpt lat="44.2004" lon="2.15848">
        <ele>259.69</ele>
        <time>2021-08-08T16:00:04Z</time>
      </trkpt>
      <trkpt lat="44.20031" lon="2.15831">
        <ele>257.77</ele>
        <time>2021-08-08T16:00:21Z</time>
      </trkpt>
      <trkpt lat="44.20024" lon="2.15812">
        <ele>255.37</ele>
        <time>2021-08-08T16:00:39Z</time>
      </trkpt>
      <trkpt lat="44.2002" lon="2.15783">
        <ele>253.93</ele>
        <time>2021-08-08T16:00:57Z</time>
      </trkpt>
      <trkpt lat="44.20021" lon="2.15768">
        <ele>252.96</ele>
        <time>2021-08-08T16:01:08Z</time>
      </trkpt>
      <trkpt lat="44.20022" lon="2.1575">
        <ele>252.48</ele>
        <time>2021-08-08T16:01:18Z</time>
      </trkpt>
      <trkpt lat="44.20017" lon="2.15722">
        <ele>252.48</ele>
        <time>2021-08-08T16:01:37Z</time>
      </trkpt>
      <trkpt lat="44.20006" lon="2.15705">
        <ele>252</ele>
        <time>2021-08-08T16:01:51Z</time>
      </trkpt>
      <trkpt lat="44.1999" lon="2.15696">
        <ele>250.08</ele>
        <time>2021-08-08T16:02:05Z</time>
      </trkpt>
      <trkpt lat="44.19977" lon="2.15689">
        <ele>248.16</ele>
        <time>2021-08-08T16:02:20Z</time>
      </trkpt>
      <trkpt lat="44.19971" lon="2.15685">
        <ele>247.2</ele>
        <time>2021-08-08T16:02:29Z</time>
      </trkpt>
      <trkpt lat="44.19961" lon="2.15676">
        <ele>243.83</ele>
        <time>2021-08-08T16:02:45Z</time>
      </trkpt>
      <trkpt lat="44.19951" lon="2.15664">
        <ele>241.43</ele>
        <time>2021-08-08T16:03:01Z</time>
      </trkpt>
      <trkpt lat="44.19939" lon="2.15661">
        <ele>239.02</ele>
        <time>2021-08-08T16:03:19Z</time>
      </trkpt>
      <trkpt lat="44.19934" lon="2.15667">
        <ele>238.54</ele>
        <time>2021-08-08T16:03:39Z</time>
      </trkpt>
      <trkpt lat="44.19918" lon="2.15673">
        <ele>238.06</ele>
        <time>2021-08-08T16:03:56Z</time>
      </trkpt>
      <trkpt lat="44.19911" lon="2.15671">
        <ele>237.58</ele>
        <time>2021-08-08T16:04:15Z</time>
      </trkpt>
      <trkpt lat="44.1989" lon="2.15669">
        <ele>237.58</ele>
        <time>2021-08-08T16:04:31Z</time>
      </trkpt>
      <trkpt lat="44.19876" lon="2.15648">
        <ele>238.54</ele>
        <time>2021-08-08T16:04:48Z</time>
      </trkpt>
      <trkpt lat="44.19872" lon="2.15627">
        <ele>238.54</ele>
        <time>2021-08-08T16:05:04Z</time>
      </trkpt>
      <trkpt lat="44.19866" lon="2.15603">
        <ele>238.54</ele>
        <time>2021-08-08T16:05:20Z</time>
      </trkpt>
      <trkpt lat="44.19862" lon="2.15588">
        <ele>239.02</ele>
        <time>2021-08-08T16:05:30Z</time>
      </trkpt>
      <trkpt lat="44.19852" lon="2.15568">
        <ele>239.02</ele>
        <time>2021-08-08T16:05:47Z</time>
      </trkpt>
      <trkpt lat="44.19842" lon="2.15546">
        <ele>239.51</ele>
        <time>2021-08-08T16:06:01Z</time>
      </trkpt>
      <trkpt lat="44.19826" lon="2.1553">
        <ele>239.99</ele>
        <time>2021-08-08T16:06:17Z</time>
      </trkpt>
      <trkpt lat="44.19808" lon="2.15515">
        <ele>241.43</ele>
        <time>2021-08-08T16:06:33Z</time>
      </trkpt>
      <trkpt lat="44.19794" lon="2.1551">
        <ele>242.87</ele>
        <time>2021-08-08T16:06:50Z</time>
      </trkpt>
      <trkpt lat="44.19769" lon="2.15513">
        <ele>244.31</ele>
        <time>2021-08-08T16:07:07Z</time>
      </trkpt>
      <trkpt lat="44.19763" lon="2.15511">
        <ele>244.79</ele>
        <time>2021-08-08T16:07:12Z</time>
      </trkpt>
      <trkpt lat="44.19754" lon="2.15505">
        <ele>244.79</ele>
        <time>2021-08-08T16:07:20Z</time>
      </trkpt>
      <trkpt lat="44.19731" lon="2.15496">
        <ele>244.79</ele>
        <time>2021-08-08T16:07:42Z</time>
      </trkpt>
      <trkpt lat="44.19726" lon="2.15495">
        <ele>243.35</ele>
        <time>2021-08-08T16:07:47Z</time>
      </trkpt>
      <trkpt lat="44.19706" lon="2.15487">
        <ele>242.39</ele>
        <time>2021-08-08T16:08:06Z</time>
      </trkpt>
      <trkpt lat="44.19689" lon="2.15478">
        <ele>240.95</ele>
        <time>2021-08-08T16:08:24Z</time>
      </trkpt>
      <trkpt lat="44.19674" lon="2.15471">
        <ele>239.51</ele>
        <time>2021-08-08T16:08:39Z</time>
      </trkpt>
      <trkpt lat="44.19657" lon="2.15459">
        <ele>238.54</ele>
        <time>2021-08-08T16:08:58Z</time>
      </trkpt>
      <trkpt lat="44.19644" lon="2.15452">
        <ele>238.06</ele>
        <time>2021-08-08T16:09:14Z</time>
      </trkpt>
      <trkpt lat="44.19639" lon="2.15452">
        <ele>237.1</ele>
        <time>2021-08-08T16:09:27Z</time>
      </trkpt>
      <trkpt lat="44.19637" lon="2.15458">
        <ele>238.54</ele>
        <time>2021-08-08T16:09:55Z</time>
      </trkpt>
      <trkpt lat="44.19637" lon="2.15458">
        <ele>238.54</ele>
        <time>2021-08-08T16:09:56Z</time>
      </trkpt>
      <trkpt lat="44.19637" lon="2.15458">
        <ele>237.1</ele>
        <time>2021-08-08T16:09:58Z</time>
      </trkpt>
      <trkpt lat="44.19637" lon="2.15455">
        <ele>238.06</ele>
        <time>2021-08-08T16:10:12Z</time>
      </trkpt>
      <trkpt lat="44.19636" lon="2.15452">
        <ele>238.06</ele>
        <time>2021-08-08T16:10:34Z</time>
      </trkpt>
    </trkseg>
  </trk>
</gpx>